<?xml version="1.0" encoding="UTF-8" standalone="no" ?>
<gpx xmlns="http://www.topografix.com/GPX/1/1" xmlns:xsi="http://www.w3.org/2001/XMLSchema-instance" xsi:schemaLocation="http://www.topografix.com/GPX/1/1 http://www.topografix.com/GPX/1/1/gpx.xsd" version="1.1" creator="VisuGPX - https://www.visugpx.com">
  <metadata>
    <name>Bois de verrieres et visite Arboretum</name>
    <desc><![CDATA[AVF ANtony, randonnee pedestre
Bois de verrieres et visite Arboretum]]></desc>
  </metadata>
  <trk>
    <name><![CDATA[Arboretum animé]]></name>
    <cmt><![CDATA[30 mai 2017 à 09:09:10]]></cmt>
    <trkseg>
      <trkpt lat="48.74746" lon="2.29204">
        <ele>54</ele>
        <time>2017-05-30T07:09:10Z</time>
      </trkpt>
      <trkpt lat="48.7474" lon="2.29196">
        <ele>51</ele>
        <time>2017-05-30T07:09:27Z</time>
      </trkpt>
      <trkpt lat="48.74734" lon="2.29191">
        <ele>53</ele>
        <time>2017-05-30T07:09:31Z</time>
      </trkpt>
      <trkpt lat="48.74731" lon="2.29186">
        <ele>54</ele>
        <time>2017-05-30T07:09:35Z</time>
      </trkpt>
      <trkpt lat="48.74729" lon="2.2918">
        <ele>55</ele>
        <time>2017-05-30T07:09:41Z</time>
      </trkpt>
      <trkpt lat="48.74728" lon="2.29171">
        <ele>55</ele>
        <time>2017-05-30T07:09:46Z</time>
      </trkpt>
      <trkpt lat="48.74727" lon="2.29163">
        <ele>56</ele>
        <time>2017-05-30T07:09:51Z</time>
      </trkpt>
      <trkpt lat="48.74717" lon="2.29157">
        <ele>57</ele>
        <time>2017-05-30T07:09:56Z</time>
      </trkpt>
      <trkpt lat="48.74715" lon="2.29148">
        <ele>57</ele>
        <time>2017-05-30T07:10:01Z</time>
      </trkpt>
      <trkpt lat="48.74714" lon="2.2914">
        <ele>56</ele>
        <time>2017-05-30T07:10:07Z</time>
      </trkpt>
      <trkpt lat="48.74711" lon="2.29135">
        <ele>56</ele>
        <time>2017-05-30T07:10:11Z</time>
      </trkpt>
      <trkpt lat="48.74703" lon="2.29122">
        <ele>56</ele>
        <time>2017-05-30T07:10:19Z</time>
      </trkpt>
      <trkpt lat="48.74702" lon="2.29115">
        <ele>56</ele>
        <time>2017-05-30T07:10:23Z</time>
      </trkpt>
      <trkpt lat="48.74698" lon="2.29111">
        <ele>57</ele>
        <time>2017-05-30T07:10:26Z</time>
      </trkpt>
      <trkpt lat="48.74694" lon="2.29105">
        <ele>57</ele>
        <time>2017-05-30T07:10:31Z</time>
      </trkpt>
      <trkpt lat="48.7469" lon="2.29101">
        <ele>58</ele>
        <time>2017-05-30T07:10:35Z</time>
      </trkpt>
      <trkpt lat="48.74688" lon="2.29094">
        <ele>58</ele>
        <time>2017-05-30T07:10:39Z</time>
      </trkpt>
      <trkpt lat="48.74687" lon="2.29087">
        <ele>57</ele>
        <time>2017-05-30T07:10:43Z</time>
      </trkpt>
      <trkpt lat="48.74683" lon="2.29081">
        <ele>56</ele>
        <time>2017-05-30T07:10:47Z</time>
      </trkpt>
      <trkpt lat="48.74679" lon="2.29076">
        <ele>56</ele>
        <time>2017-05-30T07:10:52Z</time>
      </trkpt>
      <trkpt lat="48.74675" lon="2.29069">
        <ele>56</ele>
        <time>2017-05-30T07:10:56Z</time>
      </trkpt>
      <trkpt lat="48.74673" lon="2.29062">
        <ele>56</ele>
        <time>2017-05-30T07:11:00Z</time>
      </trkpt>
      <trkpt lat="48.7467" lon="2.29056">
        <ele>56</ele>
        <time>2017-05-30T07:11:04Z</time>
      </trkpt>
      <trkpt lat="48.74653" lon="2.29038">
        <ele>58</ele>
        <time>2017-05-30T07:11:22Z</time>
      </trkpt>
      <trkpt lat="48.74648" lon="2.29037">
        <ele>58</ele>
        <time>2017-05-30T07:11:25Z</time>
      </trkpt>
      <trkpt lat="48.74644" lon="2.29032">
        <ele>58</ele>
        <time>2017-05-30T07:11:29Z</time>
      </trkpt>
      <trkpt lat="48.7464" lon="2.29017">
        <ele>58</ele>
        <time>2017-05-30T07:11:37Z</time>
      </trkpt>
      <trkpt lat="48.74636" lon="2.28986">
        <ele>59</ele>
        <time>2017-05-30T07:11:54Z</time>
      </trkpt>
      <trkpt lat="48.74629" lon="2.28966">
        <ele>60</ele>
        <time>2017-05-30T07:12:10Z</time>
      </trkpt>
      <trkpt lat="48.74624" lon="2.28963">
        <ele>60</ele>
        <time>2017-05-30T07:12:15Z</time>
      </trkpt>
      <trkpt lat="48.74619" lon="2.28961">
        <ele>60</ele>
        <time>2017-05-30T07:12:18Z</time>
      </trkpt>
      <trkpt lat="48.74617" lon="2.28954">
        <ele>60</ele>
        <time>2017-05-30T07:12:23Z</time>
      </trkpt>
      <trkpt lat="48.74624" lon="2.28927">
        <ele>59</ele>
        <time>2017-05-30T07:12:40Z</time>
      </trkpt>
      <trkpt lat="48.74623" lon="2.28918">
        <ele>59</ele>
        <time>2017-05-30T07:12:45Z</time>
      </trkpt>
      <trkpt lat="48.74622" lon="2.2891">
        <ele>59</ele>
        <time>2017-05-30T07:12:48Z</time>
      </trkpt>
      <trkpt lat="48.7462" lon="2.28904">
        <ele>59</ele>
        <time>2017-05-30T07:12:52Z</time>
      </trkpt>
      <trkpt lat="48.74612" lon="2.28894">
        <ele>59</ele>
        <time>2017-05-30T07:13:01Z</time>
      </trkpt>
      <trkpt lat="48.74607" lon="2.2888">
        <ele>58</ele>
        <time>2017-05-30T07:13:11Z</time>
      </trkpt>
      <trkpt lat="48.74603" lon="2.28872">
        <ele>59</ele>
        <time>2017-05-30T07:13:16Z</time>
      </trkpt>
      <trkpt lat="48.74599" lon="2.2885">
        <ele>59</ele>
        <time>2017-05-30T07:13:28Z</time>
      </trkpt>
      <trkpt lat="48.74598" lon="2.28843">
        <ele>60</ele>
        <time>2017-05-30T07:13:33Z</time>
      </trkpt>
      <trkpt lat="48.74593" lon="2.28828">
        <ele>61</ele>
        <time>2017-05-30T07:13:43Z</time>
      </trkpt>
      <trkpt lat="48.74587" lon="2.28809">
        <ele>61</ele>
        <time>2017-05-30T07:13:55Z</time>
      </trkpt>
      <trkpt lat="48.74583" lon="2.28786">
        <ele>61</ele>
        <time>2017-05-30T07:14:07Z</time>
      </trkpt>
      <trkpt lat="48.74584" lon="2.28764">
        <ele>60</ele>
        <time>2017-05-30T07:14:19Z</time>
      </trkpt>
      <trkpt lat="48.74582" lon="2.28756">
        <ele>59</ele>
        <time>2017-05-30T07:14:24Z</time>
      </trkpt>
      <trkpt lat="48.74581" lon="2.2875">
        <ele>59</ele>
        <time>2017-05-30T07:14:29Z</time>
      </trkpt>
      <trkpt lat="48.74582" lon="2.28741">
        <ele>59</ele>
        <time>2017-05-30T07:14:34Z</time>
      </trkpt>
      <trkpt lat="48.74586" lon="2.28734">
        <ele>58</ele>
        <time>2017-05-30T07:14:38Z</time>
      </trkpt>
      <trkpt lat="48.746" lon="2.28723">
        <ele>57</ele>
        <time>2017-05-30T07:14:49Z</time>
      </trkpt>
      <trkpt lat="48.74612" lon="2.28708">
        <ele>55</ele>
        <time>2017-05-30T07:15:02Z</time>
      </trkpt>
      <trkpt lat="48.74616" lon="2.28704">
        <ele>55</ele>
        <time>2017-05-30T07:15:06Z</time>
      </trkpt>
      <trkpt lat="48.74621" lon="2.28702">
        <ele>55</ele>
        <time>2017-05-30T07:15:10Z</time>
      </trkpt>
      <trkpt lat="48.74626" lon="2.28699">
        <ele>55</ele>
        <time>2017-05-30T07:15:15Z</time>
      </trkpt>
      <trkpt lat="48.7463" lon="2.28694">
        <ele>56</ele>
        <time>2017-05-30T07:15:20Z</time>
      </trkpt>
      <trkpt lat="48.74634" lon="2.28689">
        <ele>56</ele>
        <time>2017-05-30T07:15:24Z</time>
      </trkpt>
      <trkpt lat="48.74639" lon="2.28685">
        <ele>55</ele>
        <time>2017-05-30T07:15:30Z</time>
      </trkpt>
      <trkpt lat="48.74657" lon="2.28665">
        <ele>57</ele>
        <time>2017-05-30T07:15:48Z</time>
      </trkpt>
      <trkpt lat="48.74661" lon="2.28658">
        <ele>59</ele>
        <time>2017-05-30T07:15:54Z</time>
      </trkpt>
      <trkpt lat="48.74664" lon="2.28651">
        <ele>59</ele>
        <time>2017-05-30T07:15:58Z</time>
      </trkpt>
      <trkpt lat="48.74668" lon="2.28647">
        <ele>59</ele>
        <time>2017-05-30T07:16:02Z</time>
      </trkpt>
      <trkpt lat="48.74678" lon="2.28641">
        <ele>59</ele>
        <time>2017-05-30T07:16:09Z</time>
      </trkpt>
      <trkpt lat="48.74686" lon="2.28634">
        <ele>58</ele>
        <time>2017-05-30T07:16:16Z</time>
      </trkpt>
      <trkpt lat="48.74689" lon="2.28628">
        <ele>59</ele>
        <time>2017-05-30T07:16:22Z</time>
      </trkpt>
      <trkpt lat="48.74689" lon="2.28621">
        <ele>60</ele>
        <time>2017-05-30T07:16:28Z</time>
      </trkpt>
      <trkpt lat="48.74694" lon="2.28607">
        <ele>63</ele>
        <time>2017-05-30T07:16:43Z</time>
      </trkpt>
      <trkpt lat="48.747" lon="2.28597">
        <ele>63</ele>
        <time>2017-05-30T07:16:48Z</time>
      </trkpt>
      <trkpt lat="48.74707" lon="2.28591">
        <ele>63</ele>
        <time>2017-05-30T07:16:52Z</time>
      </trkpt>
      <trkpt lat="48.7473" lon="2.28571">
        <ele>61</ele>
        <time>2017-05-30T07:17:05Z</time>
      </trkpt>
      <trkpt lat="48.74734" lon="2.28566">
        <ele>61</ele>
        <time>2017-05-30T07:17:09Z</time>
      </trkpt>
      <trkpt lat="48.74737" lon="2.28562">
        <ele>61</ele>
        <time>2017-05-30T07:17:13Z</time>
      </trkpt>
      <trkpt lat="48.74741" lon="2.28557">
        <ele>61</ele>
        <time>2017-05-30T07:17:17Z</time>
      </trkpt>
      <trkpt lat="48.74744" lon="2.28552">
        <ele>61</ele>
        <time>2017-05-30T07:17:22Z</time>
      </trkpt>
      <trkpt lat="48.74748" lon="2.28546">
        <ele>61</ele>
        <time>2017-05-30T07:17:28Z</time>
      </trkpt>
      <trkpt lat="48.74752" lon="2.28544">
        <ele>61</ele>
        <time>2017-05-30T07:17:32Z</time>
      </trkpt>
      <trkpt lat="48.74755" lon="2.28532">
        <ele>63</ele>
        <time>2017-05-30T07:18:24Z</time>
      </trkpt>
      <trkpt lat="48.74758" lon="2.28526">
        <ele>65</ele>
        <time>2017-05-30T07:18:29Z</time>
      </trkpt>
      <trkpt lat="48.74767" lon="2.28516">
        <ele>70</ele>
        <time>2017-05-30T07:18:43Z</time>
      </trkpt>
      <trkpt lat="48.74776" lon="2.28507">
        <ele>71</ele>
        <time>2017-05-30T07:18:52Z</time>
      </trkpt>
      <trkpt lat="48.74781" lon="2.28502">
        <ele>70</ele>
        <time>2017-05-30T07:18:55Z</time>
      </trkpt>
      <trkpt lat="48.74786" lon="2.28498">
        <ele>70</ele>
        <time>2017-05-30T07:18:59Z</time>
      </trkpt>
      <trkpt lat="48.74791" lon="2.28498">
        <ele>70</ele>
        <time>2017-05-30T07:19:03Z</time>
      </trkpt>
      <trkpt lat="48.74798" lon="2.28488">
        <ele>70</ele>
        <time>2017-05-30T07:19:13Z</time>
      </trkpt>
      <trkpt lat="48.74805" lon="2.28478">
        <ele>69</ele>
        <time>2017-05-30T07:19:26Z</time>
      </trkpt>
      <trkpt lat="48.74818" lon="2.28458">
        <ele>69</ele>
        <time>2017-05-30T07:19:45Z</time>
      </trkpt>
      <trkpt lat="48.74826" lon="2.28449">
        <ele>69</ele>
        <time>2017-05-30T07:19:54Z</time>
      </trkpt>
      <trkpt lat="48.74836" lon="2.28442">
        <ele>71</ele>
        <time>2017-05-30T07:20:09Z</time>
      </trkpt>
      <trkpt lat="48.74845" lon="2.28435">
        <ele>71</ele>
        <time>2017-05-30T07:20:21Z</time>
      </trkpt>
      <trkpt lat="48.74853" lon="2.28417">
        <ele>71</ele>
        <time>2017-05-30T07:20:45Z</time>
      </trkpt>
      <trkpt lat="48.74863" lon="2.2841">
        <ele>70</ele>
        <time>2017-05-30T07:20:53Z</time>
      </trkpt>
      <trkpt lat="48.74872" lon="2.28406">
        <ele>68</ele>
        <time>2017-05-30T07:21:17Z</time>
      </trkpt>
      <trkpt lat="48.74875" lon="2.28392">
        <ele>67</ele>
        <time>2017-05-30T07:21:33Z</time>
      </trkpt>
      <trkpt lat="48.74886" lon="2.2837">
        <ele>72</ele>
        <time>2017-05-30T07:21:54Z</time>
      </trkpt>
      <trkpt lat="48.74895" lon="2.28361">
        <ele>75</ele>
        <time>2017-05-30T07:22:01Z</time>
      </trkpt>
      <trkpt lat="48.74902" lon="2.28353">
        <ele>77</ele>
        <time>2017-05-30T07:22:09Z</time>
      </trkpt>
      <trkpt lat="48.74909" lon="2.28342">
        <ele>77</ele>
        <time>2017-05-30T07:22:18Z</time>
      </trkpt>
      <trkpt lat="48.74916" lon="2.28332">
        <ele>76</ele>
        <time>2017-05-30T07:22:26Z</time>
      </trkpt>
      <trkpt lat="48.74924" lon="2.28323">
        <ele>76</ele>
        <time>2017-05-30T07:22:34Z</time>
      </trkpt>
      <trkpt lat="48.74946" lon="2.28298">
        <ele>74</ele>
        <time>2017-05-30T07:22:58Z</time>
      </trkpt>
      <trkpt lat="48.74951" lon="2.28286">
        <ele>73</ele>
        <time>2017-05-30T07:23:11Z</time>
      </trkpt>
      <trkpt lat="48.74959" lon="2.28279">
        <ele>73</ele>
        <time>2017-05-30T07:23:18Z</time>
      </trkpt>
      <trkpt lat="48.74967" lon="2.28272">
        <ele>73</ele>
        <time>2017-05-30T07:23:27Z</time>
      </trkpt>
      <trkpt lat="48.74974" lon="2.28261">
        <ele>75</ele>
        <time>2017-05-30T07:23:39Z</time>
      </trkpt>
      <trkpt lat="48.74983" lon="2.28253">
        <ele>77</ele>
        <time>2017-05-30T07:23:50Z</time>
      </trkpt>
      <trkpt lat="48.74988" lon="2.28242">
        <ele>77</ele>
        <time>2017-05-30T07:23:57Z</time>
      </trkpt>
      <trkpt lat="48.74998" lon="2.2824">
        <ele>77</ele>
        <time>2017-05-30T07:24:04Z</time>
      </trkpt>
      <trkpt lat="48.75008" lon="2.2824">
        <ele>77</ele>
        <time>2017-05-30T07:24:10Z</time>
      </trkpt>
      <trkpt lat="48.75017" lon="2.28244">
        <ele>77</ele>
        <time>2017-05-30T07:24:13Z</time>
      </trkpt>
      <trkpt lat="48.75025" lon="2.28256">
        <ele>77</ele>
        <time>2017-05-30T07:24:24Z</time>
      </trkpt>
      <trkpt lat="48.75041" lon="2.28268">
        <ele>78</ele>
        <time>2017-05-30T07:24:41Z</time>
      </trkpt>
      <trkpt lat="48.75059" lon="2.28253">
        <ele>80</ele>
        <time>2017-05-30T07:25:03Z</time>
      </trkpt>
      <trkpt lat="48.75069" lon="2.28251">
        <ele>80</ele>
        <time>2017-05-30T07:25:18Z</time>
      </trkpt>
      <trkpt lat="48.75087" lon="2.2824">
        <ele>82</ele>
        <time>2017-05-30T07:25:30Z</time>
      </trkpt>
      <trkpt lat="48.75113" lon="2.2822">
        <ele>85</ele>
        <time>2017-05-30T07:26:02Z</time>
      </trkpt>
      <trkpt lat="48.75124" lon="2.28216">
        <ele>85</ele>
        <time>2017-05-30T07:26:08Z</time>
      </trkpt>
      <trkpt lat="48.75134" lon="2.28225">
        <ele>84</ele>
        <time>2017-05-30T07:26:21Z</time>
      </trkpt>
      <trkpt lat="48.75141" lon="2.28212">
        <ele>83</ele>
        <time>2017-05-30T07:26:42Z</time>
      </trkpt>
      <trkpt lat="48.7515" lon="2.28206">
        <ele>80</ele>
        <time>2017-05-30T07:26:50Z</time>
      </trkpt>
      <trkpt lat="48.75159" lon="2.28202">
        <ele>79</ele>
        <time>2017-05-30T07:26:59Z</time>
      </trkpt>
      <trkpt lat="48.75168" lon="2.28195">
        <ele>79</ele>
        <time>2017-05-30T07:27:09Z</time>
      </trkpt>
      <trkpt lat="48.75175" lon="2.28186">
        <ele>79</ele>
        <time>2017-05-30T07:27:17Z</time>
      </trkpt>
      <trkpt lat="48.75184" lon="2.28182">
        <ele>79</ele>
        <time>2017-05-30T07:27:26Z</time>
      </trkpt>
      <trkpt lat="48.752" lon="2.28165">
        <ele>80</ele>
        <time>2017-05-30T07:27:41Z</time>
      </trkpt>
      <trkpt lat="48.75207" lon="2.28154">
        <ele>80</ele>
        <time>2017-05-30T07:27:49Z</time>
      </trkpt>
      <trkpt lat="48.75214" lon="2.28144">
        <ele>81</ele>
        <time>2017-05-30T07:27:56Z</time>
      </trkpt>
      <trkpt lat="48.75228" lon="2.28126">
        <ele>79</ele>
        <time>2017-05-30T07:28:12Z</time>
      </trkpt>
      <trkpt lat="48.75241" lon="2.28107">
        <ele>78</ele>
        <time>2017-05-30T07:28:28Z</time>
      </trkpt>
      <trkpt lat="48.75246" lon="2.28097">
        <ele>78</ele>
        <time>2017-05-30T07:28:36Z</time>
      </trkpt>
      <trkpt lat="48.7525" lon="2.28083">
        <ele>78</ele>
        <time>2017-05-30T07:28:48Z</time>
      </trkpt>
      <trkpt lat="48.75258" lon="2.28073">
        <ele>78</ele>
        <time>2017-05-30T07:28:55Z</time>
      </trkpt>
      <trkpt lat="48.75275" lon="2.28059">
        <ele>77</ele>
        <time>2017-05-30T07:29:09Z</time>
      </trkpt>
      <trkpt lat="48.753" lon="2.28038">
        <ele>78</ele>
        <time>2017-05-30T07:29:29Z</time>
      </trkpt>
      <trkpt lat="48.75305" lon="2.28025">
        <ele>77</ele>
        <time>2017-05-30T07:29:36Z</time>
      </trkpt>
      <trkpt lat="48.75311" lon="2.28015">
        <ele>78</ele>
        <time>2017-05-30T07:29:41Z</time>
      </trkpt>
      <trkpt lat="48.75316" lon="2.28002">
        <ele>77</ele>
        <time>2017-05-30T07:29:47Z</time>
      </trkpt>
      <trkpt lat="48.75323" lon="2.27977">
        <ele>76</ele>
        <time>2017-05-30T07:30:03Z</time>
      </trkpt>
      <trkpt lat="48.75327" lon="2.27964">
        <ele>76</ele>
        <time>2017-05-30T07:30:11Z</time>
      </trkpt>
      <trkpt lat="48.75341" lon="2.27945">
        <ele>78</ele>
        <time>2017-05-30T07:30:26Z</time>
      </trkpt>
      <trkpt lat="48.75356" lon="2.27907">
        <ele>76</ele>
        <time>2017-05-30T07:30:50Z</time>
      </trkpt>
      <trkpt lat="48.75355" lon="2.27877">
        <ele>76</ele>
        <time>2017-05-30T07:31:05Z</time>
      </trkpt>
      <trkpt lat="48.75359" lon="2.27864">
        <ele>76</ele>
        <time>2017-05-30T07:31:13Z</time>
      </trkpt>
      <trkpt lat="48.75367" lon="2.27854">
        <ele>76</ele>
        <time>2017-05-30T07:31:21Z</time>
      </trkpt>
      <trkpt lat="48.75372" lon="2.27842">
        <ele>77</ele>
        <time>2017-05-30T07:31:29Z</time>
      </trkpt>
      <trkpt lat="48.75381" lon="2.27834">
        <ele>79</ele>
        <time>2017-05-30T07:31:39Z</time>
      </trkpt>
      <trkpt lat="48.75389" lon="2.27829">
        <ele>80</ele>
        <time>2017-05-30T07:31:49Z</time>
      </trkpt>
      <trkpt lat="48.75395" lon="2.27817">
        <ele>81</ele>
        <time>2017-05-30T07:31:57Z</time>
      </trkpt>
      <trkpt lat="48.75403" lon="2.27809">
        <ele>81</ele>
        <time>2017-05-30T07:32:04Z</time>
      </trkpt>
      <trkpt lat="48.75406" lon="2.27795">
        <ele>82</ele>
        <time>2017-05-30T07:32:11Z</time>
      </trkpt>
      <trkpt lat="48.75401" lon="2.27783">
        <ele>82</ele>
        <time>2017-05-30T07:32:21Z</time>
      </trkpt>
      <trkpt lat="48.75402" lon="2.27769">
        <ele>84</ele>
        <time>2017-05-30T07:32:30Z</time>
      </trkpt>
      <trkpt lat="48.75409" lon="2.27759">
        <ele>84</ele>
        <time>2017-05-30T07:32:40Z</time>
      </trkpt>
      <trkpt lat="48.75416" lon="2.27747">
        <ele>86</ele>
        <time>2017-05-30T07:32:50Z</time>
      </trkpt>
      <trkpt lat="48.75423" lon="2.27734">
        <ele>87</ele>
        <time>2017-05-30T07:32:56Z</time>
      </trkpt>
      <trkpt lat="48.75425" lon="2.27721">
        <ele>88</ele>
        <time>2017-05-30T07:33:08Z</time>
      </trkpt>
      <trkpt lat="48.75433" lon="2.27712">
        <ele>88</ele>
        <time>2017-05-30T07:33:16Z</time>
      </trkpt>
      <trkpt lat="48.75443" lon="2.27702">
        <ele>86</ele>
        <time>2017-05-30T07:33:32Z</time>
      </trkpt>
      <trkpt lat="48.75462" lon="2.27683">
        <ele>86</ele>
        <time>2017-05-30T07:33:40Z</time>
      </trkpt>
      <trkpt lat="48.7545" lon="2.27677">
        <ele>89</ele>
        <time>2017-05-30T07:34:19Z</time>
      </trkpt>
      <trkpt lat="48.75453" lon="2.2769">
        <ele>90</ele>
        <time>2017-05-30T07:34:55Z</time>
      </trkpt>
      <trkpt lat="48.75454" lon="2.27705">
        <ele>92</ele>
        <time>2017-05-30T07:35:36Z</time>
      </trkpt>
      <trkpt lat="48.75467" lon="2.27695">
        <ele>92</ele>
        <time>2017-05-30T07:36:26Z</time>
      </trkpt>
      <trkpt lat="48.75458" lon="2.27689">
        <ele>92</ele>
        <time>2017-05-30T07:36:36Z</time>
      </trkpt>
      <trkpt lat="48.75449" lon="2.27689">
        <ele>92</ele>
        <time>2017-05-30T07:36:45Z</time>
      </trkpt>
      <trkpt lat="48.75439" lon="2.27691">
        <ele>92</ele>
        <time>2017-05-30T07:36:56Z</time>
      </trkpt>
      <trkpt lat="48.75429" lon="2.27688">
        <ele>92</ele>
        <time>2017-05-30T07:37:03Z</time>
      </trkpt>
      <trkpt lat="48.75428" lon="2.27675">
        <ele>93</ele>
        <time>2017-05-30T07:37:10Z</time>
      </trkpt>
      <trkpt lat="48.75429" lon="2.2766">
        <ele>94</ele>
        <time>2017-05-30T07:37:18Z</time>
      </trkpt>
      <trkpt lat="48.75428" lon="2.27646">
        <ele>93</ele>
        <time>2017-05-30T07:37:25Z</time>
      </trkpt>
      <trkpt lat="48.75428" lon="2.27631">
        <ele>93</ele>
        <time>2017-05-30T07:37:33Z</time>
      </trkpt>
      <trkpt lat="48.75433" lon="2.27619">
        <ele>93</ele>
        <time>2017-05-30T07:37:42Z</time>
      </trkpt>
      <trkpt lat="48.75426" lon="2.27605">
        <ele>94</ele>
        <time>2017-05-30T07:37:49Z</time>
      </trkpt>
      <trkpt lat="48.75444" lon="2.2759">
        <ele>94</ele>
        <time>2017-05-30T07:38:05Z</time>
      </trkpt>
      <trkpt lat="48.75449" lon="2.27578">
        <ele>94</ele>
        <time>2017-05-30T07:38:09Z</time>
      </trkpt>
      <trkpt lat="48.75456" lon="2.27566">
        <ele>94</ele>
        <time>2017-05-30T07:38:15Z</time>
      </trkpt>
      <trkpt lat="48.75466" lon="2.27541">
        <ele>93</ele>
        <time>2017-05-30T07:38:34Z</time>
      </trkpt>
      <trkpt lat="48.75474" lon="2.27513">
        <ele>93</ele>
        <time>2017-05-30T07:38:48Z</time>
      </trkpt>
      <trkpt lat="48.75479" lon="2.27499">
        <ele>93</ele>
        <time>2017-05-30T07:38:55Z</time>
      </trkpt>
      <trkpt lat="48.75479" lon="2.27485">
        <ele>92</ele>
        <time>2017-05-30T07:39:10Z</time>
      </trkpt>
      <trkpt lat="48.7547" lon="2.2748">
        <ele>91</ele>
        <time>2017-05-30T07:39:25Z</time>
      </trkpt>
      <trkpt lat="48.75471" lon="2.27466">
        <ele>88</ele>
        <time>2017-05-30T07:40:37Z</time>
      </trkpt>
      <trkpt lat="48.75473" lon="2.27448">
        <ele>89</ele>
        <time>2017-05-30T07:41:48Z</time>
      </trkpt>
      <trkpt lat="48.75482" lon="2.27446">
        <ele>90</ele>
        <time>2017-05-30T07:41:55Z</time>
      </trkpt>
      <trkpt lat="48.75486" lon="2.27458">
        <ele>89</ele>
        <time>2017-05-30T07:42:03Z</time>
      </trkpt>
      <trkpt lat="48.75502" lon="2.27473">
        <ele>91</ele>
        <time>2017-05-30T07:42:21Z</time>
      </trkpt>
      <trkpt lat="48.7552" lon="2.27482">
        <ele>91</ele>
        <time>2017-05-30T07:42:38Z</time>
      </trkpt>
      <trkpt lat="48.75529" lon="2.2748">
        <ele>90</ele>
        <time>2017-05-30T07:42:47Z</time>
      </trkpt>
      <trkpt lat="48.75536" lon="2.27469">
        <ele>90</ele>
        <time>2017-05-30T07:42:57Z</time>
      </trkpt>
      <trkpt lat="48.75538" lon="2.27454">
        <ele>89</ele>
        <time>2017-05-30T07:43:06Z</time>
      </trkpt>
      <trkpt lat="48.75543" lon="2.27428">
        <ele>89</ele>
        <time>2017-05-30T07:43:22Z</time>
      </trkpt>
      <trkpt lat="48.75561" lon="2.27376">
        <ele>87</ele>
        <time>2017-05-30T07:43:52Z</time>
      </trkpt>
      <trkpt lat="48.75561" lon="2.27362">
        <ele>87</ele>
        <time>2017-05-30T07:43:59Z</time>
      </trkpt>
      <trkpt lat="48.75561" lon="2.27347">
        <ele>88</ele>
        <time>2017-05-30T07:44:07Z</time>
      </trkpt>
      <trkpt lat="48.75569" lon="2.27338">
        <ele>89</ele>
        <time>2017-05-30T07:44:14Z</time>
      </trkpt>
      <trkpt lat="48.75575" lon="2.27326">
        <ele>90</ele>
        <time>2017-05-30T07:44:22Z</time>
      </trkpt>
      <trkpt lat="48.75582" lon="2.27314">
        <ele>89</ele>
        <time>2017-05-30T07:44:31Z</time>
      </trkpt>
      <trkpt lat="48.75591" lon="2.27311">
        <ele>90</ele>
        <time>2017-05-30T07:44:38Z</time>
      </trkpt>
      <trkpt lat="48.756" lon="2.27306">
        <ele>89</ele>
        <time>2017-05-30T07:44:47Z</time>
      </trkpt>
      <trkpt lat="48.75606" lon="2.27294">
        <ele>89</ele>
        <time>2017-05-30T07:44:56Z</time>
      </trkpt>
      <trkpt lat="48.75596" lon="2.2729">
        <ele>89</ele>
        <time>2017-05-30T07:45:15Z</time>
      </trkpt>
      <trkpt lat="48.75589" lon="2.2728">
        <ele>87</ele>
        <time>2017-05-30T07:45:25Z</time>
      </trkpt>
      <trkpt lat="48.75572" lon="2.27269">
        <ele>87</ele>
        <time>2017-05-30T07:45:50Z</time>
      </trkpt>
      <trkpt lat="48.75573" lon="2.27253">
        <ele>87</ele>
        <time>2017-05-30T07:45:54Z</time>
      </trkpt>
      <trkpt lat="48.75582" lon="2.27244">
        <ele>87</ele>
        <time>2017-05-30T07:46:30Z</time>
      </trkpt>
      <trkpt lat="48.75599" lon="2.27209">
        <ele>89</ele>
        <time>2017-05-30T07:46:55Z</time>
      </trkpt>
      <trkpt lat="48.75605" lon="2.27198">
        <ele>89</ele>
        <time>2017-05-30T07:47:02Z</time>
      </trkpt>
      <trkpt lat="48.7562" lon="2.27183">
        <ele>89</ele>
        <time>2017-05-30T07:47:17Z</time>
      </trkpt>
      <trkpt lat="48.75626" lon="2.27171">
        <ele>89</ele>
        <time>2017-05-30T07:47:24Z</time>
      </trkpt>
      <trkpt lat="48.75643" lon="2.27137">
        <ele>93</ele>
        <time>2017-05-30T07:47:49Z</time>
      </trkpt>
      <trkpt lat="48.7565" lon="2.27127">
        <ele>93</ele>
        <time>2017-05-30T07:47:57Z</time>
      </trkpt>
      <trkpt lat="48.75672" lon="2.27082">
        <ele>94</ele>
        <time>2017-05-30T07:48:29Z</time>
      </trkpt>
      <trkpt lat="48.75685" lon="2.27059">
        <ele>95</ele>
        <time>2017-05-30T07:48:45Z</time>
      </trkpt>
      <trkpt lat="48.75698" lon="2.27022">
        <ele>97</ele>
        <time>2017-05-30T07:49:12Z</time>
      </trkpt>
      <trkpt lat="48.75703" lon="2.2701">
        <ele>97</ele>
        <time>2017-05-30T07:49:20Z</time>
      </trkpt>
      <trkpt lat="48.75706" lon="2.26996">
        <ele>97</ele>
        <time>2017-05-30T07:49:29Z</time>
      </trkpt>
      <trkpt lat="48.75713" lon="2.26984">
        <ele>97</ele>
        <time>2017-05-30T07:49:38Z</time>
      </trkpt>
      <trkpt lat="48.75731" lon="2.26953">
        <ele>96</ele>
        <time>2017-05-30T07:49:57Z</time>
      </trkpt>
      <trkpt lat="48.75738" lon="2.26943">
        <ele>96</ele>
        <time>2017-05-30T07:50:05Z</time>
      </trkpt>
      <trkpt lat="48.7577" lon="2.26929">
        <ele>99</ele>
        <time>2017-05-30T07:50:44Z</time>
      </trkpt>
      <trkpt lat="48.75782" lon="2.2689">
        <ele>97</ele>
        <time>2017-05-30T07:51:15Z</time>
      </trkpt>
      <trkpt lat="48.75787" lon="2.26877">
        <ele>97</ele>
        <time>2017-05-30T07:51:23Z</time>
      </trkpt>
      <trkpt lat="48.75791" lon="2.26864">
        <ele>97</ele>
        <time>2017-05-30T07:51:31Z</time>
      </trkpt>
      <trkpt lat="48.75806" lon="2.26811">
        <ele>101</ele>
        <time>2017-05-30T07:52:04Z</time>
      </trkpt>
      <trkpt lat="48.75809" lon="2.26783">
        <ele>103</ele>
        <time>2017-05-30T07:52:30Z</time>
      </trkpt>
      <trkpt lat="48.75811" lon="2.26769">
        <ele>103</ele>
        <time>2017-05-30T07:52:39Z</time>
      </trkpt>
      <trkpt lat="48.75813" lon="2.26754">
        <ele>105</ele>
        <time>2017-05-30T07:52:48Z</time>
      </trkpt>
      <trkpt lat="48.7582" lon="2.26712">
        <ele>107</ele>
        <time>2017-05-30T07:53:13Z</time>
      </trkpt>
      <trkpt lat="48.7582" lon="2.26697">
        <ele>108</ele>
        <time>2017-05-30T07:53:23Z</time>
      </trkpt>
      <trkpt lat="48.75825" lon="2.26684">
        <ele>109</ele>
        <time>2017-05-30T07:53:53Z</time>
      </trkpt>
      <trkpt lat="48.75815" lon="2.26675">
        <ele>114</ele>
        <time>2017-05-30T07:55:46Z</time>
      </trkpt>
      <trkpt lat="48.75812" lon="2.26662">
        <ele>113</ele>
        <time>2017-05-30T07:55:58Z</time>
      </trkpt>
      <trkpt lat="48.7581" lon="2.26648">
        <ele>112</ele>
        <time>2017-05-30T07:56:09Z</time>
      </trkpt>
      <trkpt lat="48.75812" lon="2.26634">
        <ele>112</ele>
        <time>2017-05-30T07:56:19Z</time>
      </trkpt>
      <trkpt lat="48.75815" lon="2.26621">
        <ele>112</ele>
        <time>2017-05-30T07:56:27Z</time>
      </trkpt>
      <trkpt lat="48.75822" lon="2.26609">
        <ele>112</ele>
        <time>2017-05-30T07:56:36Z</time>
      </trkpt>
      <trkpt lat="48.75826" lon="2.26597">
        <ele>112</ele>
        <time>2017-05-30T07:56:47Z</time>
      </trkpt>
      <trkpt lat="48.75835" lon="2.26592">
        <ele>113</ele>
        <time>2017-05-30T07:57:01Z</time>
      </trkpt>
      <trkpt lat="48.75837" lon="2.26576">
        <ele>115</ele>
        <time>2017-05-30T07:57:27Z</time>
      </trkpt>
      <trkpt lat="48.75828" lon="2.2657">
        <ele>116</ele>
        <time>2017-05-30T07:57:36Z</time>
      </trkpt>
      <trkpt lat="48.75823" lon="2.26557">
        <ele>119</ele>
        <time>2017-05-30T07:57:51Z</time>
      </trkpt>
      <trkpt lat="48.7582" lon="2.26529">
        <ele>124</ele>
        <time>2017-05-30T07:58:23Z</time>
      </trkpt>
      <trkpt lat="48.75811" lon="2.26519">
        <ele>124</ele>
        <time>2017-05-30T07:58:28Z</time>
      </trkpt>
      <trkpt lat="48.75797" lon="2.26497">
        <ele>124</ele>
        <time>2017-05-30T07:58:38Z</time>
      </trkpt>
      <trkpt lat="48.7579" lon="2.26488">
        <ele>126</ele>
        <time>2017-05-30T07:58:45Z</time>
      </trkpt>
      <trkpt lat="48.75787" lon="2.26475">
        <ele>127</ele>
        <time>2017-05-30T07:58:53Z</time>
      </trkpt>
      <trkpt lat="48.7579" lon="2.26461">
        <ele>128</ele>
        <time>2017-05-30T07:59:01Z</time>
      </trkpt>
      <trkpt lat="48.75784" lon="2.2645">
        <ele>132</ele>
        <time>2017-05-30T07:59:55Z</time>
      </trkpt>
      <trkpt lat="48.75779" lon="2.2642">
        <ele>136</ele>
        <time>2017-05-30T08:00:21Z</time>
      </trkpt>
      <trkpt lat="48.75767" lon="2.26398">
        <ele>138</ele>
        <time>2017-05-30T08:00:45Z</time>
      </trkpt>
      <trkpt lat="48.75764" lon="2.26384">
        <ele>139</ele>
        <time>2017-05-30T08:00:53Z</time>
      </trkpt>
      <trkpt lat="48.75758" lon="2.26366">
        <ele>140</ele>
        <time>2017-05-30T08:01:04Z</time>
      </trkpt>
      <trkpt lat="48.75749" lon="2.26361">
        <ele>141</ele>
        <time>2017-05-30T08:01:12Z</time>
      </trkpt>
      <trkpt lat="48.75724" lon="2.26317">
        <ele>146</ele>
        <time>2017-05-30T08:01:44Z</time>
      </trkpt>
      <trkpt lat="48.75717" lon="2.26306">
        <ele>148</ele>
        <time>2017-05-30T08:01:51Z</time>
      </trkpt>
      <trkpt lat="48.7571" lon="2.26298">
        <ele>147</ele>
        <time>2017-05-30T08:01:59Z</time>
      </trkpt>
      <trkpt lat="48.75704" lon="2.26285">
        <ele>147</ele>
        <time>2017-05-30T08:02:07Z</time>
      </trkpt>
      <trkpt lat="48.75702" lon="2.26272">
        <ele>147</ele>
        <time>2017-05-30T08:02:15Z</time>
      </trkpt>
      <trkpt lat="48.75697" lon="2.2626">
        <ele>147</ele>
        <time>2017-05-30T08:02:23Z</time>
      </trkpt>
      <trkpt lat="48.75696" lon="2.26245">
        <ele>148</ele>
        <time>2017-05-30T08:02:31Z</time>
      </trkpt>
      <trkpt lat="48.75699" lon="2.26231">
        <ele>149</ele>
        <time>2017-05-30T08:02:36Z</time>
      </trkpt>
      <trkpt lat="48.75703" lon="2.26218">
        <ele>148</ele>
        <time>2017-05-30T08:02:42Z</time>
      </trkpt>
      <trkpt lat="48.75706" lon="2.26204">
        <ele>147</ele>
        <time>2017-05-30T08:02:49Z</time>
      </trkpt>
      <trkpt lat="48.75717" lon="2.26179">
        <ele>146</ele>
        <time>2017-05-30T08:03:06Z</time>
      </trkpt>
      <trkpt lat="48.75732" lon="2.26161">
        <ele>147</ele>
        <time>2017-05-30T08:03:24Z</time>
      </trkpt>
      <trkpt lat="48.75741" lon="2.26158">
        <ele>147</ele>
        <time>2017-05-30T08:03:33Z</time>
      </trkpt>
      <trkpt lat="48.7577" lon="2.26159">
        <ele>148</ele>
        <time>2017-05-30T08:04:11Z</time>
      </trkpt>
      <trkpt lat="48.75778" lon="2.26166">
        <ele>149</ele>
        <time>2017-05-30T08:04:18Z</time>
      </trkpt>
      <trkpt lat="48.75785" lon="2.26175">
        <ele>150</ele>
        <time>2017-05-30T08:04:29Z</time>
      </trkpt>
      <trkpt lat="48.7579" lon="2.26186">
        <ele>150</ele>
        <time>2017-05-30T08:04:37Z</time>
      </trkpt>
      <trkpt lat="48.75802" lon="2.26241">
        <ele>155</ele>
        <time>2017-05-30T08:05:08Z</time>
      </trkpt>
      <trkpt lat="48.75807" lon="2.26252">
        <ele>155</ele>
        <time>2017-05-30T08:05:15Z</time>
      </trkpt>
      <trkpt lat="48.75812" lon="2.26264">
        <ele>155</ele>
        <time>2017-05-30T08:05:24Z</time>
      </trkpt>
      <trkpt lat="48.75818" lon="2.26274">
        <ele>155</ele>
        <time>2017-05-30T08:05:32Z</time>
      </trkpt>
      <trkpt lat="48.75826" lon="2.2628">
        <ele>156</ele>
        <time>2017-05-30T08:05:41Z</time>
      </trkpt>
      <trkpt lat="48.75833" lon="2.26291">
        <ele>156</ele>
        <time>2017-05-30T08:05:49Z</time>
      </trkpt>
      <trkpt lat="48.75841" lon="2.26297">
        <ele>158</ele>
        <time>2017-05-30T08:05:58Z</time>
      </trkpt>
      <trkpt lat="48.75851" lon="2.263">
        <ele>158</ele>
        <time>2017-05-30T08:06:08Z</time>
      </trkpt>
      <trkpt lat="48.75861" lon="2.263">
        <ele>158</ele>
        <time>2017-05-30T08:06:17Z</time>
      </trkpt>
      <trkpt lat="48.7587" lon="2.26296">
        <ele>158</ele>
        <time>2017-05-30T08:06:26Z</time>
      </trkpt>
      <trkpt lat="48.75886" lon="2.2628">
        <ele>160</ele>
        <time>2017-05-30T08:06:43Z</time>
      </trkpt>
      <trkpt lat="48.75891" lon="2.26269">
        <ele>159</ele>
        <time>2017-05-30T08:06:55Z</time>
      </trkpt>
      <trkpt lat="48.75893" lon="2.26241">
        <ele>158</ele>
        <time>2017-05-30T08:07:13Z</time>
      </trkpt>
      <trkpt lat="48.75895" lon="2.26211">
        <ele>159</ele>
        <time>2017-05-30T08:07:30Z</time>
      </trkpt>
      <trkpt lat="48.75894" lon="2.26197">
        <ele>159</ele>
        <time>2017-05-30T08:07:40Z</time>
      </trkpt>
      <trkpt lat="48.75891" lon="2.26183">
        <ele>159</ele>
        <time>2017-05-30T08:07:50Z</time>
      </trkpt>
      <trkpt lat="48.7589" lon="2.26168">
        <ele>158</ele>
        <time>2017-05-30T08:08:00Z</time>
      </trkpt>
      <trkpt lat="48.75882" lon="2.26161">
        <ele>159</ele>
        <time>2017-05-30T08:08:12Z</time>
      </trkpt>
      <trkpt lat="48.75874" lon="2.26151">
        <ele>159</ele>
        <time>2017-05-30T08:08:22Z</time>
      </trkpt>
      <trkpt lat="48.75873" lon="2.26136">
        <ele>161</ele>
        <time>2017-05-30T08:08:31Z</time>
      </trkpt>
      <trkpt lat="48.75878" lon="2.26121">
        <ele>167</ele>
        <time>2017-05-30T08:13:30Z</time>
      </trkpt>
      <trkpt lat="48.75873" lon="2.26097">
        <ele>168</ele>
        <time>2017-05-30T08:14:05Z</time>
      </trkpt>
      <trkpt lat="48.75874" lon="2.26083">
        <ele>167</ele>
        <time>2017-05-30T08:14:13Z</time>
      </trkpt>
      <trkpt lat="48.75877" lon="2.26069">
        <ele>167</ele>
        <time>2017-05-30T08:14:23Z</time>
      </trkpt>
      <trkpt lat="48.7588" lon="2.26055">
        <ele>164</ele>
        <time>2017-05-30T08:14:31Z</time>
      </trkpt>
      <trkpt lat="48.75877" lon="2.26042">
        <ele>164</ele>
        <time>2017-05-30T08:14:42Z</time>
      </trkpt>
      <trkpt lat="48.75869" lon="2.26035">
        <ele>164</ele>
        <time>2017-05-30T08:14:52Z</time>
      </trkpt>
      <trkpt lat="48.75863" lon="2.26025">
        <ele>164</ele>
        <time>2017-05-30T08:15:00Z</time>
      </trkpt>
      <trkpt lat="48.75855" lon="2.26017">
        <ele>165</ele>
        <time>2017-05-30T08:15:09Z</time>
      </trkpt>
      <trkpt lat="48.75852" lon="2.26004">
        <ele>164</ele>
        <time>2017-05-30T08:15:13Z</time>
      </trkpt>
      <trkpt lat="48.75846" lon="2.2599">
        <ele>162</ele>
        <time>2017-05-30T08:15:19Z</time>
      </trkpt>
      <trkpt lat="48.75839" lon="2.25981">
        <ele>162</ele>
        <time>2017-05-30T08:15:26Z</time>
      </trkpt>
      <trkpt lat="48.75823" lon="2.25945">
        <ele>166</ele>
        <time>2017-05-30T08:15:51Z</time>
      </trkpt>
      <trkpt lat="48.75813" lon="2.25921">
        <ele>166</ele>
        <time>2017-05-30T08:16:06Z</time>
      </trkpt>
      <trkpt lat="48.75809" lon="2.25908">
        <ele>167</ele>
        <time>2017-05-30T08:16:13Z</time>
      </trkpt>
      <trkpt lat="48.75804" lon="2.25896">
        <ele>168</ele>
        <time>2017-05-30T08:16:22Z</time>
      </trkpt>
      <trkpt lat="48.75796" lon="2.25871">
        <ele>169</ele>
        <time>2017-05-30T08:16:37Z</time>
      </trkpt>
      <trkpt lat="48.75788" lon="2.25844">
        <ele>168</ele>
        <time>2017-05-30T08:16:53Z</time>
      </trkpt>
      <trkpt lat="48.75779" lon="2.25816">
        <ele>168</ele>
        <time>2017-05-30T08:17:08Z</time>
      </trkpt>
      <trkpt lat="48.75774" lon="2.25803">
        <ele>169</ele>
        <time>2017-05-30T08:17:16Z</time>
      </trkpt>
      <trkpt lat="48.75772" lon="2.25789">
        <ele>168</ele>
        <time>2017-05-30T08:17:23Z</time>
      </trkpt>
      <trkpt lat="48.75775" lon="2.25775">
        <ele>168</ele>
        <time>2017-05-30T08:17:31Z</time>
      </trkpt>
      <trkpt lat="48.7577" lon="2.25763">
        <ele>167</ele>
        <time>2017-05-30T08:17:39Z</time>
      </trkpt>
      <trkpt lat="48.75753" lon="2.25726">
        <ele>167</ele>
        <time>2017-05-30T08:18:01Z</time>
      </trkpt>
      <trkpt lat="48.75746" lon="2.25684">
        <ele>167</ele>
        <time>2017-05-30T08:18:26Z</time>
      </trkpt>
      <trkpt lat="48.75742" lon="2.25672">
        <ele>169</ele>
        <time>2017-05-30T08:18:34Z</time>
      </trkpt>
      <trkpt lat="48.75741" lon="2.25658">
        <ele>169</ele>
        <time>2017-05-30T08:18:43Z</time>
      </trkpt>
      <trkpt lat="48.75743" lon="2.2563">
        <ele>173</ele>
        <time>2017-05-30T08:19:16Z</time>
      </trkpt>
      <trkpt lat="48.75746" lon="2.25617">
        <ele>174</ele>
        <time>2017-05-30T08:19:24Z</time>
      </trkpt>
      <trkpt lat="48.7575" lon="2.25603">
        <ele>173</ele>
        <time>2017-05-30T08:19:33Z</time>
      </trkpt>
      <trkpt lat="48.75752" lon="2.25575">
        <ele>172</ele>
        <time>2017-05-30T08:19:48Z</time>
      </trkpt>
      <trkpt lat="48.75755" lon="2.25561">
        <ele>172</ele>
        <time>2017-05-30T08:19:56Z</time>
      </trkpt>
      <trkpt lat="48.75761" lon="2.2552">
        <ele>171</ele>
        <time>2017-05-30T08:20:19Z</time>
      </trkpt>
      <trkpt lat="48.75765" lon="2.25507">
        <ele>171</ele>
        <time>2017-05-30T08:20:29Z</time>
      </trkpt>
      <trkpt lat="48.75766" lon="2.25493">
        <ele>171</ele>
        <time>2017-05-30T08:20:36Z</time>
      </trkpt>
      <trkpt lat="48.75776" lon="2.25435">
        <ele>172</ele>
        <time>2017-05-30T08:21:09Z</time>
      </trkpt>
      <trkpt lat="48.75779" lon="2.25408">
        <ele>170</ele>
        <time>2017-05-30T08:21:23Z</time>
      </trkpt>
      <trkpt lat="48.75785" lon="2.25395">
        <ele>171</ele>
        <time>2017-05-30T08:21:32Z</time>
      </trkpt>
      <trkpt lat="48.75788" lon="2.25381">
        <ele>171</ele>
        <time>2017-05-30T08:21:39Z</time>
      </trkpt>
      <trkpt lat="48.75791" lon="2.25368">
        <ele>172</ele>
        <time>2017-05-30T08:21:49Z</time>
      </trkpt>
      <trkpt lat="48.75791" lon="2.25339">
        <ele>174</ele>
        <time>2017-05-30T08:22:04Z</time>
      </trkpt>
      <trkpt lat="48.75795" lon="2.25327">
        <ele>174</ele>
        <time>2017-05-30T08:22:13Z</time>
      </trkpt>
      <trkpt lat="48.75798" lon="2.25313">
        <ele>175</ele>
        <time>2017-05-30T08:22:23Z</time>
      </trkpt>
      <trkpt lat="48.75806" lon="2.25286">
        <ele>177</ele>
        <time>2017-05-30T08:22:40Z</time>
      </trkpt>
      <trkpt lat="48.75809" lon="2.25273">
        <ele>176</ele>
        <time>2017-05-30T08:22:48Z</time>
      </trkpt>
      <trkpt lat="48.75809" lon="2.25214">
        <ele>172</ele>
        <time>2017-05-30T08:23:20Z</time>
      </trkpt>
      <trkpt lat="48.75805" lon="2.25201">
        <ele>171</ele>
        <time>2017-05-30T08:23:28Z</time>
      </trkpt>
      <trkpt lat="48.75802" lon="2.25187">
        <ele>172</ele>
        <time>2017-05-30T08:23:35Z</time>
      </trkpt>
      <trkpt lat="48.75806" lon="2.25175">
        <ele>173</ele>
        <time>2017-05-30T08:23:42Z</time>
      </trkpt>
      <trkpt lat="48.75814" lon="2.25168">
        <ele>173</ele>
        <time>2017-05-30T08:23:51Z</time>
      </trkpt>
      <trkpt lat="48.75828" lon="2.25145">
        <ele>170</ele>
        <time>2017-05-30T08:24:08Z</time>
      </trkpt>
      <trkpt lat="48.75829" lon="2.25158">
        <ele>168</ele>
        <time>2017-05-30T08:24:50Z</time>
      </trkpt>
      <trkpt lat="48.75822" lon="2.25167">
        <ele>168</ele>
        <time>2017-05-30T08:24:58Z</time>
      </trkpt>
      <trkpt lat="48.7581" lon="2.25173">
        <ele>165</ele>
        <time>2017-05-30T08:26:15Z</time>
      </trkpt>
      <trkpt lat="48.75807" lon="2.2519">
        <ele>166</ele>
        <time>2017-05-30T08:26:38Z</time>
      </trkpt>
      <trkpt lat="48.75798" lon="2.25188">
        <ele>170</ele>
        <time>2017-05-30T08:26:53Z</time>
      </trkpt>
      <trkpt lat="48.75789" lon="2.25191">
        <ele>171</ele>
        <time>2017-05-30T08:27:01Z</time>
      </trkpt>
      <trkpt lat="48.75776" lon="2.25197">
        <ele>173</ele>
        <time>2017-05-30T08:27:25Z</time>
      </trkpt>
      <trkpt lat="48.75767" lon="2.25199">
        <ele>173</ele>
        <time>2017-05-30T08:27:34Z</time>
      </trkpt>
      <trkpt lat="48.75733" lon="2.25226">
        <ele>177</ele>
        <time>2017-05-30T08:28:10Z</time>
      </trkpt>
      <trkpt lat="48.75715" lon="2.25236">
        <ele>179</ele>
        <time>2017-05-30T08:28:30Z</time>
      </trkpt>
      <trkpt lat="48.75689" lon="2.2525">
        <ele>180</ele>
        <time>2017-05-30T08:28:58Z</time>
      </trkpt>
      <trkpt lat="48.75671" lon="2.25261">
        <ele>179</ele>
        <time>2017-05-30T08:29:12Z</time>
      </trkpt>
      <trkpt lat="48.75663" lon="2.25262">
        <ele>178</ele>
        <time>2017-05-30T08:29:18Z</time>
      </trkpt>
      <trkpt lat="48.75653" lon="2.25261">
        <ele>179</ele>
        <time>2017-05-30T08:29:26Z</time>
      </trkpt>
      <trkpt lat="48.75644" lon="2.25256">
        <ele>179</ele>
        <time>2017-05-30T08:29:37Z</time>
      </trkpt>
      <trkpt lat="48.75636" lon="2.25264">
        <ele>179</ele>
        <time>2017-05-30T08:29:49Z</time>
      </trkpt>
      <trkpt lat="48.75626" lon="2.2527">
        <ele>179</ele>
        <time>2017-05-30T08:29:56Z</time>
      </trkpt>
      <trkpt lat="48.75624" lon="2.25283">
        <ele>179</ele>
        <time>2017-05-30T08:30:13Z</time>
      </trkpt>
      <trkpt lat="48.75614" lon="2.25284">
        <ele>179</ele>
        <time>2017-05-30T08:30:20Z</time>
      </trkpt>
      <trkpt lat="48.756" lon="2.25266">
        <ele>175</ele>
        <time>2017-05-30T08:30:44Z</time>
      </trkpt>
      <trkpt lat="48.75591" lon="2.25262">
        <ele>175</ele>
        <time>2017-05-30T08:30:54Z</time>
      </trkpt>
      <trkpt lat="48.75582" lon="2.25262">
        <ele>177</ele>
        <time>2017-05-30T08:31:05Z</time>
      </trkpt>
      <trkpt lat="48.75543" lon="2.25259">
        <ele>177</ele>
        <time>2017-05-30T08:31:41Z</time>
      </trkpt>
      <trkpt lat="48.75534" lon="2.25258">
        <ele>178</ele>
        <time>2017-05-30T08:31:48Z</time>
      </trkpt>
      <trkpt lat="48.75524" lon="2.25257">
        <ele>179</ele>
        <time>2017-05-30T08:31:56Z</time>
      </trkpt>
      <trkpt lat="48.75505" lon="2.25256">
        <ele>179</ele>
        <time>2017-05-30T08:32:11Z</time>
      </trkpt>
      <trkpt lat="48.75498" lon="2.25246">
        <ele>179</ele>
        <time>2017-05-30T08:32:20Z</time>
      </trkpt>
      <trkpt lat="48.75493" lon="2.25234">
        <ele>177</ele>
        <time>2017-05-30T08:32:27Z</time>
      </trkpt>
      <trkpt lat="48.75486" lon="2.25224">
        <ele>177</ele>
        <time>2017-05-30T08:32:35Z</time>
      </trkpt>
      <trkpt lat="48.75482" lon="2.25212">
        <ele>176</ele>
        <time>2017-05-30T08:32:44Z</time>
      </trkpt>
      <trkpt lat="48.7548" lon="2.25198">
        <ele>176</ele>
        <time>2017-05-30T08:32:54Z</time>
      </trkpt>
      <trkpt lat="48.75487" lon="2.25189">
        <ele>175</ele>
        <time>2017-05-30T08:33:04Z</time>
      </trkpt>
      <trkpt lat="48.75482" lon="2.25177">
        <ele>175</ele>
        <time>2017-05-30T08:33:14Z</time>
      </trkpt>
      <trkpt lat="48.75477" lon="2.25165">
        <ele>175</ele>
        <time>2017-05-30T08:33:24Z</time>
      </trkpt>
      <trkpt lat="48.75475" lon="2.25151">
        <ele>175</ele>
        <time>2017-05-30T08:33:31Z</time>
      </trkpt>
      <trkpt lat="48.75472" lon="2.25137">
        <ele>174</ele>
        <time>2017-05-30T08:33:40Z</time>
      </trkpt>
      <trkpt lat="48.75463" lon="2.25133">
        <ele>173</ele>
        <time>2017-05-30T08:33:52Z</time>
      </trkpt>
      <trkpt lat="48.75466" lon="2.25118">
        <ele>172</ele>
        <time>2017-05-30T08:34:01Z</time>
      </trkpt>
      <trkpt lat="48.75459" lon="2.25108">
        <ele>171</ele>
        <time>2017-05-30T08:34:10Z</time>
      </trkpt>
      <trkpt lat="48.75452" lon="2.25099">
        <ele>170</ele>
        <time>2017-05-30T08:34:20Z</time>
      </trkpt>
      <trkpt lat="48.75449" lon="2.25085">
        <ele>169</ele>
        <time>2017-05-30T08:34:30Z</time>
      </trkpt>
      <trkpt lat="48.75448" lon="2.25072">
        <ele>169</ele>
        <time>2017-05-30T08:34:38Z</time>
      </trkpt>
      <trkpt lat="48.75444" lon="2.25058">
        <ele>169</ele>
        <time>2017-05-30T08:34:48Z</time>
      </trkpt>
      <trkpt lat="48.75435" lon="2.25054">
        <ele>170</ele>
        <time>2017-05-30T08:35:01Z</time>
      </trkpt>
      <trkpt lat="48.75426" lon="2.25054">
        <ele>171</ele>
        <time>2017-05-30T08:35:12Z</time>
      </trkpt>
      <trkpt lat="48.75419" lon="2.25045">
        <ele>171</ele>
        <time>2017-05-30T08:35:22Z</time>
      </trkpt>
      <trkpt lat="48.7541" lon="2.2504">
        <ele>172</ele>
        <time>2017-05-30T08:35:32Z</time>
      </trkpt>
      <trkpt lat="48.75404" lon="2.25029">
        <ele>173</ele>
        <time>2017-05-30T08:35:42Z</time>
      </trkpt>
      <trkpt lat="48.75404" lon="2.25014">
        <ele>171</ele>
        <time>2017-05-30T08:35:57Z</time>
      </trkpt>
      <trkpt lat="48.75398" lon="2.25003">
        <ele>171</ele>
        <time>2017-05-30T08:36:07Z</time>
      </trkpt>
      <trkpt lat="48.75399" lon="2.24989">
        <ele>171</ele>
        <time>2017-05-30T08:36:17Z</time>
      </trkpt>
      <trkpt lat="48.75404" lon="2.24968">
        <ele>171</ele>
        <time>2017-05-30T08:36:30Z</time>
      </trkpt>
      <trkpt lat="48.75403" lon="2.24961">
        <ele>171</ele>
        <time>2017-05-30T08:36:33Z</time>
      </trkpt>
      <trkpt lat="48.75404" lon="2.24954">
        <ele>171</ele>
        <time>2017-05-30T08:36:37Z</time>
      </trkpt>
      <trkpt lat="48.75403" lon="2.24947">
        <ele>171</ele>
        <time>2017-05-30T08:36:42Z</time>
      </trkpt>
      <trkpt lat="48.75403" lon="2.24938">
        <ele>172</ele>
        <time>2017-05-30T08:36:46Z</time>
      </trkpt>
      <trkpt lat="48.75405" lon="2.24924">
        <ele>172</ele>
        <time>2017-05-30T08:36:54Z</time>
      </trkpt>
      <trkpt lat="48.75407" lon="2.24894">
        <ele>173</ele>
        <time>2017-05-30T08:37:13Z</time>
      </trkpt>
      <trkpt lat="48.75412" lon="2.24882">
        <ele>173</ele>
        <time>2017-05-30T08:37:19Z</time>
      </trkpt>
      <trkpt lat="48.75412" lon="2.24852">
        <ele>173</ele>
        <time>2017-05-30T08:37:38Z</time>
      </trkpt>
      <trkpt lat="48.75421" lon="2.24826">
        <ele>172</ele>
        <time>2017-05-30T08:37:58Z</time>
      </trkpt>
      <trkpt lat="48.75428" lon="2.24815">
        <ele>172</ele>
        <time>2017-05-30T08:38:08Z</time>
      </trkpt>
      <trkpt lat="48.75434" lon="2.24805">
        <ele>173</ele>
        <time>2017-05-30T08:38:16Z</time>
      </trkpt>
      <trkpt lat="48.75452" lon="2.24794">
        <ele>172</ele>
        <time>2017-05-30T08:38:34Z</time>
      </trkpt>
      <trkpt lat="48.75472" lon="2.24773">
        <ele>172</ele>
        <time>2017-05-30T08:38:57Z</time>
      </trkpt>
      <trkpt lat="48.75487" lon="2.2477">
        <ele>172</ele>
        <time>2017-05-30T08:39:10Z</time>
      </trkpt>
      <trkpt lat="48.75494" lon="2.2476">
        <ele>172</ele>
        <time>2017-05-30T08:39:33Z</time>
      </trkpt>
      <trkpt lat="48.75499" lon="2.24759">
        <ele>173</ele>
        <time>2017-05-30T08:39:37Z</time>
      </trkpt>
      <trkpt lat="48.75503" lon="2.2476">
        <ele>173</ele>
        <time>2017-05-30T08:39:41Z</time>
      </trkpt>
      <trkpt lat="48.75508" lon="2.24756">
        <ele>173</ele>
        <time>2017-05-30T08:39:46Z</time>
      </trkpt>
      <trkpt lat="48.7551" lon="2.2475">
        <ele>173</ele>
        <time>2017-05-30T08:39:54Z</time>
      </trkpt>
      <trkpt lat="48.75526" lon="2.24744">
        <ele>173</ele>
        <time>2017-05-30T08:40:07Z</time>
      </trkpt>
      <trkpt lat="48.7553" lon="2.2474">
        <ele>173</ele>
        <time>2017-05-30T08:40:11Z</time>
      </trkpt>
      <trkpt lat="48.75539" lon="2.24732">
        <ele>172</ele>
        <time>2017-05-30T08:40:19Z</time>
      </trkpt>
      <trkpt lat="48.75553" lon="2.24724">
        <ele>172</ele>
        <time>2017-05-30T08:40:33Z</time>
      </trkpt>
      <trkpt lat="48.75557" lon="2.24719">
        <ele>173</ele>
        <time>2017-05-30T08:40:45Z</time>
      </trkpt>
      <trkpt lat="48.75564" lon="2.24737">
        <ele>174</ele>
        <time>2017-05-30T08:41:20Z</time>
      </trkpt>
      <trkpt lat="48.75571" lon="2.24749">
        <ele>177</ele>
        <time>2017-05-30T08:41:31Z</time>
      </trkpt>
      <trkpt lat="48.75576" lon="2.24761">
        <ele>179</ele>
        <time>2017-05-30T08:41:40Z</time>
      </trkpt>
      <trkpt lat="48.75584" lon="2.24767">
        <ele>180</ele>
        <time>2017-05-30T08:41:52Z</time>
      </trkpt>
      <trkpt lat="48.75592" lon="2.24775">
        <ele>180</ele>
        <time>2017-05-30T08:42:02Z</time>
      </trkpt>
      <trkpt lat="48.756" lon="2.24783">
        <ele>181</ele>
        <time>2017-05-30T08:42:14Z</time>
      </trkpt>
      <trkpt lat="48.75607" lon="2.24805">
        <ele>180</ele>
        <time>2017-05-30T08:42:21Z</time>
      </trkpt>
      <trkpt lat="48.75611" lon="2.2482">
        <ele>178</ele>
        <time>2017-05-30T08:42:27Z</time>
      </trkpt>
      <trkpt lat="48.75614" lon="2.24828">
        <ele>178</ele>
        <time>2017-05-30T08:42:31Z</time>
      </trkpt>
      <trkpt lat="48.75618" lon="2.24832">
        <ele>178</ele>
        <time>2017-05-30T08:42:36Z</time>
      </trkpt>
      <trkpt lat="48.75627" lon="2.24839">
        <ele>179</ele>
        <time>2017-05-30T08:42:46Z</time>
      </trkpt>
      <trkpt lat="48.7563" lon="2.24846">
        <ele>180</ele>
        <time>2017-05-30T08:42:51Z</time>
      </trkpt>
      <trkpt lat="48.75632" lon="2.24853">
        <ele>180</ele>
        <time>2017-05-30T08:42:54Z</time>
      </trkpt>
      <trkpt lat="48.75635" lon="2.24857">
        <ele>180</ele>
        <time>2017-05-30T08:42:57Z</time>
      </trkpt>
      <trkpt lat="48.75639" lon="2.24861">
        <ele>179</ele>
        <time>2017-05-30T08:43:01Z</time>
      </trkpt>
      <trkpt lat="48.75652" lon="2.24876">
        <ele>179</ele>
        <time>2017-05-30T08:43:12Z</time>
      </trkpt>
      <trkpt lat="48.75658" lon="2.24887">
        <ele>179</ele>
        <time>2017-05-30T08:43:22Z</time>
      </trkpt>
      <trkpt lat="48.75657" lon="2.24895">
        <ele>178</ele>
        <time>2017-05-30T08:43:31Z</time>
      </trkpt>
      <trkpt lat="48.7566" lon="2.24901">
        <ele>178</ele>
        <time>2017-05-30T08:43:39Z</time>
      </trkpt>
      <trkpt lat="48.75663" lon="2.24896">
        <ele>178</ele>
        <time>2017-05-30T08:43:46Z</time>
      </trkpt>
      <trkpt lat="48.75668" lon="2.24893">
        <ele>179</ele>
        <time>2017-05-30T08:43:53Z</time>
      </trkpt>
      <trkpt lat="48.75672" lon="2.24891">
        <ele>179</ele>
        <time>2017-05-30T08:43:58Z</time>
      </trkpt>
      <trkpt lat="48.75675" lon="2.24885">
        <ele>178</ele>
        <time>2017-05-30T08:44:04Z</time>
      </trkpt>
      <trkpt lat="48.75677" lon="2.24879">
        <ele>179</ele>
        <time>2017-05-30T08:44:09Z</time>
      </trkpt>
      <trkpt lat="48.75681" lon="2.24874">
        <ele>179</ele>
        <time>2017-05-30T08:44:15Z</time>
      </trkpt>
      <trkpt lat="48.75686" lon="2.2487">
        <ele>179</ele>
        <time>2017-05-30T08:44:19Z</time>
      </trkpt>
      <trkpt lat="48.75691" lon="2.24872">
        <ele>180</ele>
        <time>2017-05-30T08:44:23Z</time>
      </trkpt>
      <trkpt lat="48.75695" lon="2.24874">
        <ele>180</ele>
        <time>2017-05-30T08:44:29Z</time>
      </trkpt>
      <trkpt lat="48.757" lon="2.24874">
        <ele>179</ele>
        <time>2017-05-30T08:44:32Z</time>
      </trkpt>
      <trkpt lat="48.75706" lon="2.24872">
        <ele>179</ele>
        <time>2017-05-30T08:44:35Z</time>
      </trkpt>
      <trkpt lat="48.75729" lon="2.24862">
        <ele>179</ele>
        <time>2017-05-30T08:44:56Z</time>
      </trkpt>
      <trkpt lat="48.75733" lon="2.24858">
        <ele>179</ele>
        <time>2017-05-30T08:45:01Z</time>
      </trkpt>
      <trkpt lat="48.75738" lon="2.24858">
        <ele>179</ele>
        <time>2017-05-30T08:45:07Z</time>
      </trkpt>
      <trkpt lat="48.75753" lon="2.24854">
        <ele>178</ele>
        <time>2017-05-30T08:45:19Z</time>
      </trkpt>
      <trkpt lat="48.75759" lon="2.24853">
        <ele>179</ele>
        <time>2017-05-30T08:45:26Z</time>
      </trkpt>
      <trkpt lat="48.75764" lon="2.24853">
        <ele>178</ele>
        <time>2017-05-30T08:45:32Z</time>
      </trkpt>
      <trkpt lat="48.75774" lon="2.2485">
        <ele>179</ele>
        <time>2017-05-30T08:45:41Z</time>
      </trkpt>
      <trkpt lat="48.75779" lon="2.24847">
        <ele>179</ele>
        <time>2017-05-30T08:45:46Z</time>
      </trkpt>
      <trkpt lat="48.75783" lon="2.24845">
        <ele>179</ele>
        <time>2017-05-30T08:45:50Z</time>
      </trkpt>
      <trkpt lat="48.75794" lon="2.24847">
        <ele>179</ele>
        <time>2017-05-30T08:45:59Z</time>
      </trkpt>
      <trkpt lat="48.75799" lon="2.24846">
        <ele>179</ele>
        <time>2017-05-30T08:46:03Z</time>
      </trkpt>
      <trkpt lat="48.75804" lon="2.24842">
        <ele>179</ele>
        <time>2017-05-30T08:46:08Z</time>
      </trkpt>
      <trkpt lat="48.75808" lon="2.24839">
        <ele>179</ele>
        <time>2017-05-30T08:46:12Z</time>
      </trkpt>
      <trkpt lat="48.75812" lon="2.24834">
        <ele>178</ele>
        <time>2017-05-30T08:46:16Z</time>
      </trkpt>
      <trkpt lat="48.75821" lon="2.24831">
        <ele>178</ele>
        <time>2017-05-30T08:46:23Z</time>
      </trkpt>
      <trkpt lat="48.75831" lon="2.24831">
        <ele>177</ele>
        <time>2017-05-30T08:46:33Z</time>
      </trkpt>
      <trkpt lat="48.75836" lon="2.24829">
        <ele>177</ele>
        <time>2017-05-30T08:46:38Z</time>
      </trkpt>
      <trkpt lat="48.75846" lon="2.24824">
        <ele>176</ele>
        <time>2017-05-30T08:46:50Z</time>
      </trkpt>
      <trkpt lat="48.75854" lon="2.24816">
        <ele>175</ele>
        <time>2017-05-30T08:46:58Z</time>
      </trkpt>
      <trkpt lat="48.75865" lon="2.2481">
        <ele>174</ele>
        <time>2017-05-30T08:47:06Z</time>
      </trkpt>
      <trkpt lat="48.75881" lon="2.24808">
        <ele>175</ele>
        <time>2017-05-30T08:47:20Z</time>
      </trkpt>
      <trkpt lat="48.75885" lon="2.24812">
        <ele>174</ele>
        <time>2017-05-30T08:47:27Z</time>
      </trkpt>
      <trkpt lat="48.75888" lon="2.24806">
        <ele>174</ele>
        <time>2017-05-30T08:47:50Z</time>
      </trkpt>
      <trkpt lat="48.75888" lon="2.24798">
        <ele>170</ele>
        <time>2017-05-30T08:49:29Z</time>
      </trkpt>
      <trkpt lat="48.75884" lon="2.24795">
        <ele>168</ele>
        <time>2017-05-30T08:49:35Z</time>
      </trkpt>
      <trkpt lat="48.75878" lon="2.24782">
        <ele>164</ele>
        <time>2017-05-30T08:49:51Z</time>
      </trkpt>
      <trkpt lat="48.75874" lon="2.24777">
        <ele>163</ele>
        <time>2017-05-30T08:49:56Z</time>
      </trkpt>
      <trkpt lat="48.75869" lon="2.24774">
        <ele>163</ele>
        <time>2017-05-30T08:50:00Z</time>
      </trkpt>
      <trkpt lat="48.7586" lon="2.24765">
        <ele>164</ele>
        <time>2017-05-30T08:50:09Z</time>
      </trkpt>
      <trkpt lat="48.75857" lon="2.24761">
        <ele>164</ele>
        <time>2017-05-30T08:50:14Z</time>
      </trkpt>
      <trkpt lat="48.75848" lon="2.24751">
        <ele>167</ele>
        <time>2017-05-30T08:50:27Z</time>
      </trkpt>
      <trkpt lat="48.75843" lon="2.24748">
        <ele>168</ele>
        <time>2017-05-30T08:50:31Z</time>
      </trkpt>
      <trkpt lat="48.75841" lon="2.24733">
        <ele>170</ele>
        <time>2017-05-30T08:50:42Z</time>
      </trkpt>
      <trkpt lat="48.75838" lon="2.24726">
        <ele>171</ele>
        <time>2017-05-30T08:50:47Z</time>
      </trkpt>
      <trkpt lat="48.75834" lon="2.24721">
        <ele>172</ele>
        <time>2017-05-30T08:50:51Z</time>
      </trkpt>
      <trkpt lat="48.75829" lon="2.24709">
        <ele>172</ele>
        <time>2017-05-30T08:50:58Z</time>
      </trkpt>
      <trkpt lat="48.75826" lon="2.24703">
        <ele>172</ele>
        <time>2017-05-30T08:51:01Z</time>
      </trkpt>
      <trkpt lat="48.75821" lon="2.24695">
        <ele>172</ele>
        <time>2017-05-30T08:51:10Z</time>
      </trkpt>
      <trkpt lat="48.75816" lon="2.24692">
        <ele>172</ele>
        <time>2017-05-30T08:51:18Z</time>
      </trkpt>
      <trkpt lat="48.75814" lon="2.24686">
        <ele>172</ele>
        <time>2017-05-30T08:51:24Z</time>
      </trkpt>
      <trkpt lat="48.75808" lon="2.24684">
        <ele>172</ele>
        <time>2017-05-30T08:51:29Z</time>
      </trkpt>
      <trkpt lat="48.75795" lon="2.24675">
        <ele>173</ele>
        <time>2017-05-30T08:51:42Z</time>
      </trkpt>
      <trkpt lat="48.75788" lon="2.24663">
        <ele>174</ele>
        <time>2017-05-30T08:51:50Z</time>
      </trkpt>
      <trkpt lat="48.75772" lon="2.24644">
        <ele>174</ele>
        <time>2017-05-30T08:52:08Z</time>
      </trkpt>
      <trkpt lat="48.75766" lon="2.24631">
        <ele>174</ele>
        <time>2017-05-30T08:52:16Z</time>
      </trkpt>
      <trkpt lat="48.7575" lon="2.24615">
        <ele>172</ele>
        <time>2017-05-30T08:52:35Z</time>
      </trkpt>
      <trkpt lat="48.75746" lon="2.246">
        <ele>172</ele>
        <time>2017-05-30T08:52:46Z</time>
      </trkpt>
      <trkpt lat="48.75737" lon="2.24567">
        <ele>171</ele>
        <time>2017-05-30T08:52:59Z</time>
      </trkpt>
      <trkpt lat="48.75726" lon="2.24558">
        <ele>170</ele>
        <time>2017-05-30T08:53:18Z</time>
      </trkpt>
      <trkpt lat="48.75723" lon="2.24552">
        <ele>171</ele>
        <time>2017-05-30T08:53:25Z</time>
      </trkpt>
      <trkpt lat="48.75718" lon="2.24548">
        <ele>171</ele>
        <time>2017-05-30T08:53:29Z</time>
      </trkpt>
      <trkpt lat="48.75706" lon="2.24535">
        <ele>172</ele>
        <time>2017-05-30T08:53:42Z</time>
      </trkpt>
      <trkpt lat="48.75701" lon="2.24533">
        <ele>172</ele>
        <time>2017-05-30T08:53:46Z</time>
      </trkpt>
      <trkpt lat="48.75684" lon="2.24506">
        <ele>175</ele>
        <time>2017-05-30T08:54:10Z</time>
      </trkpt>
      <trkpt lat="48.7568" lon="2.24491">
        <ele>176</ele>
        <time>2017-05-30T08:54:17Z</time>
      </trkpt>
      <trkpt lat="48.75674" lon="2.24479">
        <ele>176</ele>
        <time>2017-05-30T08:54:24Z</time>
      </trkpt>
      <trkpt lat="48.75666" lon="2.24469">
        <ele>176</ele>
        <time>2017-05-30T08:54:31Z</time>
      </trkpt>
      <trkpt lat="48.75663" lon="2.24455">
        <ele>177</ele>
        <time>2017-05-30T08:54:40Z</time>
      </trkpt>
      <trkpt lat="48.75657" lon="2.24442">
        <ele>177</ele>
        <time>2017-05-30T08:54:48Z</time>
      </trkpt>
      <trkpt lat="48.75644" lon="2.24421">
        <ele>177</ele>
        <time>2017-05-30T08:55:01Z</time>
      </trkpt>
      <trkpt lat="48.75638" lon="2.2441">
        <ele>177</ele>
        <time>2017-05-30T08:55:08Z</time>
      </trkpt>
      <trkpt lat="48.75627" lon="2.24381">
        <ele>175</ele>
        <time>2017-05-30T08:55:21Z</time>
      </trkpt>
      <trkpt lat="48.75619" lon="2.24369">
        <ele>175</ele>
        <time>2017-05-30T08:55:27Z</time>
      </trkpt>
      <trkpt lat="48.75616" lon="2.24363">
        <ele>175</ele>
        <time>2017-05-30T08:55:30Z</time>
      </trkpt>
      <trkpt lat="48.75612" lon="2.24358">
        <ele>176</ele>
        <time>2017-05-30T08:55:33Z</time>
      </trkpt>
      <trkpt lat="48.75608" lon="2.24352">
        <ele>175</ele>
        <time>2017-05-30T08:55:37Z</time>
      </trkpt>
      <trkpt lat="48.75605" lon="2.24345">
        <ele>175</ele>
        <time>2017-05-30T08:55:40Z</time>
      </trkpt>
      <trkpt lat="48.75602" lon="2.24339">
        <ele>174</ele>
        <time>2017-05-30T08:55:44Z</time>
      </trkpt>
      <trkpt lat="48.75597" lon="2.24325">
        <ele>173</ele>
        <time>2017-05-30T08:55:52Z</time>
      </trkpt>
      <trkpt lat="48.75589" lon="2.24315">
        <ele>172</ele>
        <time>2017-05-30T08:55:59Z</time>
      </trkpt>
      <trkpt lat="48.75587" lon="2.24307">
        <ele>172</ele>
        <time>2017-05-30T08:56:03Z</time>
      </trkpt>
      <trkpt lat="48.75585" lon="2.243">
        <ele>171</ele>
        <time>2017-05-30T08:56:07Z</time>
      </trkpt>
      <trkpt lat="48.75577" lon="2.24289">
        <ele>170</ele>
        <time>2017-05-30T08:56:16Z</time>
      </trkpt>
      <trkpt lat="48.75573" lon="2.24273">
        <ele>170</ele>
        <time>2017-05-30T08:56:24Z</time>
      </trkpt>
      <trkpt lat="48.75569" lon="2.24259">
        <ele>170</ele>
        <time>2017-05-30T08:56:33Z</time>
      </trkpt>
      <trkpt lat="48.75569" lon="2.24243">
        <ele>171</ele>
        <time>2017-05-30T08:56:43Z</time>
      </trkpt>
      <trkpt lat="48.75572" lon="2.24227">
        <ele>173</ele>
        <time>2017-05-30T08:57:01Z</time>
      </trkpt>
      <trkpt lat="48.75576" lon="2.24213">
        <ele>173</ele>
        <time>2017-05-30T08:57:07Z</time>
      </trkpt>
      <trkpt lat="48.75591" lon="2.24203">
        <ele>175</ele>
        <time>2017-05-30T08:57:26Z</time>
      </trkpt>
      <trkpt lat="48.75617" lon="2.24189">
        <ele>176</ele>
        <time>2017-05-30T08:57:50Z</time>
      </trkpt>
      <trkpt lat="48.75646" lon="2.24171">
        <ele>179</ele>
        <time>2017-05-30T08:58:22Z</time>
      </trkpt>
      <trkpt lat="48.75672" lon="2.24151">
        <ele>180</ele>
        <time>2017-05-30T08:58:42Z</time>
      </trkpt>
      <trkpt lat="48.75681" lon="2.24151">
        <ele>180</ele>
        <time>2017-05-30T08:58:53Z</time>
      </trkpt>
      <trkpt lat="48.75698" lon="2.24133">
        <ele>181</ele>
        <time>2017-05-30T08:59:07Z</time>
      </trkpt>
      <trkpt lat="48.75707" lon="2.24131">
        <ele>181</ele>
        <time>2017-05-30T08:59:14Z</time>
      </trkpt>
      <trkpt lat="48.75716" lon="2.24129">
        <ele>183</ele>
        <time>2017-05-30T08:59:23Z</time>
      </trkpt>
      <trkpt lat="48.75736" lon="2.24128">
        <ele>185</ele>
        <time>2017-05-30T08:59:42Z</time>
      </trkpt>
      <trkpt lat="48.75744" lon="2.24124">
        <ele>184</ele>
        <time>2017-05-30T08:59:49Z</time>
      </trkpt>
      <trkpt lat="48.75754" lon="2.24122">
        <ele>183</ele>
        <time>2017-05-30T08:59:58Z</time>
      </trkpt>
      <trkpt lat="48.75762" lon="2.24114">
        <ele>183</ele>
        <time>2017-05-30T09:00:05Z</time>
      </trkpt>
      <trkpt lat="48.75791" lon="2.24101">
        <ele>181</ele>
        <time>2017-05-30T09:00:28Z</time>
      </trkpt>
      <trkpt lat="48.75798" lon="2.24092">
        <ele>181</ele>
        <time>2017-05-30T09:00:33Z</time>
      </trkpt>
      <trkpt lat="48.75816" lon="2.24083">
        <ele>181</ele>
        <time>2017-05-30T09:00:51Z</time>
      </trkpt>
      <trkpt lat="48.75835" lon="2.24088">
        <ele>181</ele>
        <time>2017-05-30T09:01:06Z</time>
      </trkpt>
      <trkpt lat="48.75854" lon="2.24083">
        <ele>180</ele>
        <time>2017-05-30T09:01:20Z</time>
      </trkpt>
      <trkpt lat="48.75863" lon="2.24088">
        <ele>180</ele>
        <time>2017-05-30T09:01:26Z</time>
      </trkpt>
      <trkpt lat="48.75873" lon="2.24088">
        <ele>180</ele>
        <time>2017-05-30T09:01:34Z</time>
      </trkpt>
      <trkpt lat="48.75882" lon="2.24091">
        <ele>180</ele>
        <time>2017-05-30T09:01:39Z</time>
      </trkpt>
      <trkpt lat="48.75887" lon="2.24093">
        <ele>180</ele>
        <time>2017-05-30T09:01:43Z</time>
      </trkpt>
      <trkpt lat="48.75892" lon="2.24093">
        <ele>180</ele>
        <time>2017-05-30T09:01:47Z</time>
      </trkpt>
      <trkpt lat="48.75902" lon="2.24093">
        <ele>179</ele>
        <time>2017-05-30T09:01:56Z</time>
      </trkpt>
      <trkpt lat="48.75908" lon="2.24093">
        <ele>179</ele>
        <time>2017-05-30T09:02:00Z</time>
      </trkpt>
      <trkpt lat="48.75912" lon="2.24091">
        <ele>179</ele>
        <time>2017-05-30T09:02:04Z</time>
      </trkpt>
      <trkpt lat="48.75917" lon="2.24094">
        <ele>179</ele>
        <time>2017-05-30T09:02:08Z</time>
      </trkpt>
      <trkpt lat="48.75922" lon="2.24093">
        <ele>179</ele>
        <time>2017-05-30T09:02:12Z</time>
      </trkpt>
      <trkpt lat="48.75943" lon="2.24096">
        <ele>180</ele>
        <time>2017-05-30T09:02:29Z</time>
      </trkpt>
      <trkpt lat="48.75952" lon="2.24094">
        <ele>180</ele>
        <time>2017-05-30T09:02:37Z</time>
      </trkpt>
      <trkpt lat="48.75968" lon="2.24094">
        <ele>180</ele>
        <time>2017-05-30T09:02:49Z</time>
      </trkpt>
      <trkpt lat="48.75992" lon="2.24099">
        <ele>176</ele>
        <time>2017-05-30T09:03:10Z</time>
      </trkpt>
      <trkpt lat="48.75998" lon="2.24099">
        <ele>176</ele>
        <time>2017-05-30T09:03:15Z</time>
      </trkpt>
      <trkpt lat="48.76003" lon="2.24099">
        <ele>177</ele>
        <time>2017-05-30T09:03:19Z</time>
      </trkpt>
      <trkpt lat="48.76007" lon="2.24101">
        <ele>177</ele>
        <time>2017-05-30T09:03:23Z</time>
      </trkpt>
      <trkpt lat="48.76012" lon="2.24105">
        <ele>178</ele>
        <time>2017-05-30T09:03:27Z</time>
      </trkpt>
      <trkpt lat="48.76017" lon="2.24107">
        <ele>178</ele>
        <time>2017-05-30T09:03:32Z</time>
      </trkpt>
      <trkpt lat="48.76022" lon="2.2411">
        <ele>179</ele>
        <time>2017-05-30T09:03:38Z</time>
      </trkpt>
      <trkpt lat="48.76034" lon="2.24123">
        <ele>179</ele>
        <time>2017-05-30T09:03:51Z</time>
      </trkpt>
      <trkpt lat="48.76039" lon="2.24127">
        <ele>179</ele>
        <time>2017-05-30T09:03:56Z</time>
      </trkpt>
      <trkpt lat="48.76049" lon="2.24129">
        <ele>179</ele>
        <time>2017-05-30T09:04:04Z</time>
      </trkpt>
      <trkpt lat="48.76063" lon="2.24141">
        <ele>180</ele>
        <time>2017-05-30T09:04:15Z</time>
      </trkpt>
      <trkpt lat="48.76084" lon="2.24165">
        <ele>179</ele>
        <time>2017-05-30T09:04:35Z</time>
      </trkpt>
      <trkpt lat="48.76088" lon="2.24168">
        <ele>180</ele>
        <time>2017-05-30T09:04:39Z</time>
      </trkpt>
      <trkpt lat="48.76092" lon="2.24173">
        <ele>179</ele>
        <time>2017-05-30T09:04:43Z</time>
      </trkpt>
      <trkpt lat="48.76096" lon="2.24175">
        <ele>179</ele>
        <time>2017-05-30T09:04:47Z</time>
      </trkpt>
      <trkpt lat="48.76112" lon="2.24193">
        <ele>177</ele>
        <time>2017-05-30T09:05:02Z</time>
      </trkpt>
      <trkpt lat="48.76116" lon="2.24198">
        <ele>177</ele>
        <time>2017-05-30T09:05:06Z</time>
      </trkpt>
      <trkpt lat="48.76121" lon="2.24202">
        <ele>178</ele>
        <time>2017-05-30T09:05:10Z</time>
      </trkpt>
      <trkpt lat="48.7613" lon="2.2421">
        <ele>177</ele>
        <time>2017-05-30T09:05:19Z</time>
      </trkpt>
      <trkpt lat="48.76135" lon="2.24212">
        <ele>177</ele>
        <time>2017-05-30T09:05:23Z</time>
      </trkpt>
      <trkpt lat="48.76143" lon="2.24221">
        <ele>176</ele>
        <time>2017-05-30T09:05:32Z</time>
      </trkpt>
      <trkpt lat="48.76153" lon="2.24236">
        <ele>175</ele>
        <time>2017-05-30T09:05:43Z</time>
      </trkpt>
      <trkpt lat="48.76157" lon="2.24241">
        <ele>175</ele>
        <time>2017-05-30T09:05:46Z</time>
      </trkpt>
      <trkpt lat="48.76166" lon="2.24249">
        <ele>175</ele>
        <time>2017-05-30T09:05:55Z</time>
      </trkpt>
      <trkpt lat="48.7617" lon="2.24252">
        <ele>175</ele>
        <time>2017-05-30T09:06:02Z</time>
      </trkpt>
      <trkpt lat="48.76177" lon="2.24263">
        <ele>174</ele>
        <time>2017-05-30T09:06:13Z</time>
      </trkpt>
      <trkpt lat="48.76185" lon="2.24272">
        <ele>173</ele>
        <time>2017-05-30T09:06:22Z</time>
      </trkpt>
      <trkpt lat="48.76188" lon="2.24279">
        <ele>173</ele>
        <time>2017-05-30T09:06:26Z</time>
      </trkpt>
      <trkpt lat="48.76192" lon="2.24282">
        <ele>173</ele>
        <time>2017-05-30T09:06:30Z</time>
      </trkpt>
      <trkpt lat="48.76195" lon="2.24287">
        <ele>173</ele>
        <time>2017-05-30T09:06:34Z</time>
      </trkpt>
      <trkpt lat="48.76195" lon="2.24304">
        <ele>173</ele>
        <time>2017-05-30T09:06:42Z</time>
      </trkpt>
      <trkpt lat="48.76201" lon="2.24335">
        <ele>171</ele>
        <time>2017-05-30T09:06:59Z</time>
      </trkpt>
      <trkpt lat="48.76204" lon="2.24341">
        <ele>170</ele>
        <time>2017-05-30T09:07:03Z</time>
      </trkpt>
      <trkpt lat="48.76209" lon="2.24355">
        <ele>170</ele>
        <time>2017-05-30T09:07:11Z</time>
      </trkpt>
      <trkpt lat="48.7621" lon="2.24363">
        <ele>170</ele>
        <time>2017-05-30T09:07:16Z</time>
      </trkpt>
      <trkpt lat="48.76227" lon="2.24397">
        <ele>170</ele>
        <time>2017-05-30T09:07:38Z</time>
      </trkpt>
      <trkpt lat="48.76232" lon="2.24428">
        <ele>169</ele>
        <time>2017-05-30T09:07:56Z</time>
      </trkpt>
      <trkpt lat="48.76235" lon="2.24436">
        <ele>169</ele>
        <time>2017-05-30T09:08:01Z</time>
      </trkpt>
      <trkpt lat="48.76241" lon="2.24447">
        <ele>169</ele>
        <time>2017-05-30T09:08:09Z</time>
      </trkpt>
      <trkpt lat="48.76247" lon="2.24461">
        <ele>169</ele>
        <time>2017-05-30T09:08:17Z</time>
      </trkpt>
      <trkpt lat="48.76251" lon="2.24474">
        <ele>169</ele>
        <time>2017-05-30T09:08:25Z</time>
      </trkpt>
      <trkpt lat="48.76256" lon="2.24487">
        <ele>169</ele>
        <time>2017-05-30T09:08:36Z</time>
      </trkpt>
      <trkpt lat="48.7626" lon="2.24491">
        <ele>168</ele>
        <time>2017-05-30T09:08:41Z</time>
      </trkpt>
      <trkpt lat="48.76263" lon="2.24496">
        <ele>168</ele>
        <time>2017-05-30T09:08:45Z</time>
      </trkpt>
      <trkpt lat="48.76265" lon="2.24503">
        <ele>168</ele>
        <time>2017-05-30T09:08:50Z</time>
      </trkpt>
      <trkpt lat="48.7626" lon="2.2452">
        <ele>168</ele>
        <time>2017-05-30T09:10:26Z</time>
      </trkpt>
      <trkpt lat="48.76259" lon="2.24533">
        <ele>168</ele>
        <time>2017-05-30T09:10:43Z</time>
      </trkpt>
      <trkpt lat="48.76254" lon="2.24537">
        <ele>168</ele>
        <time>2017-05-30T09:10:49Z</time>
      </trkpt>
      <trkpt lat="48.76257" lon="2.24538">
        <ele>168</ele>
        <time>2017-05-30T09:12:52Z</time>
      </trkpt>
      <trkpt lat="48.76258" lon="2.24532">
        <ele>168</ele>
        <time>2017-05-30T09:13:26Z</time>
      </trkpt>
      <trkpt lat="48.76257" lon="2.24524">
        <ele>168</ele>
        <time>2017-05-30T09:14:58Z</time>
      </trkpt>
      <trkpt lat="48.76254" lon="2.24517">
        <ele>168</ele>
        <time>2017-05-30T09:15:03Z</time>
      </trkpt>
      <trkpt lat="48.76253" lon="2.24515">
        <ele>169</ele>
        <time>2017-05-30T09:16:12Z</time>
      </trkpt>
      <trkpt lat="48.76254" lon="2.24518">
        <ele>168</ele>
        <time>2017-05-30T09:16:50Z</time>
      </trkpt>
      <trkpt lat="48.76258" lon="2.24526">
        <ele>169</ele>
        <time>2017-05-30T09:17:37Z</time>
      </trkpt>
      <trkpt lat="48.76261" lon="2.24533">
        <ele>169</ele>
        <time>2017-05-30T09:17:56Z</time>
      </trkpt>
      <trkpt lat="48.76263" lon="2.24539">
        <ele>169</ele>
        <time>2017-05-30T09:18:02Z</time>
      </trkpt>
      <trkpt lat="48.76268" lon="2.24544">
        <ele>168</ele>
        <time>2017-05-30T09:18:06Z</time>
      </trkpt>
      <trkpt lat="48.76272" lon="2.24552">
        <ele>168</ele>
        <time>2017-05-30T09:18:11Z</time>
      </trkpt>
      <trkpt lat="48.76276" lon="2.24557">
        <ele>168</ele>
        <time>2017-05-30T09:18:15Z</time>
      </trkpt>
      <trkpt lat="48.76277" lon="2.24565">
        <ele>168</ele>
        <time>2017-05-30T09:18:18Z</time>
      </trkpt>
      <trkpt lat="48.76279" lon="2.24572">
        <ele>169</ele>
        <time>2017-05-30T09:18:21Z</time>
      </trkpt>
      <trkpt lat="48.76285" lon="2.246">
        <ele>169</ele>
        <time>2017-05-30T09:18:37Z</time>
      </trkpt>
      <trkpt lat="48.76292" lon="2.24619">
        <ele>169</ele>
        <time>2017-05-30T09:18:50Z</time>
      </trkpt>
      <trkpt lat="48.76293" lon="2.24627">
        <ele>169</ele>
        <time>2017-05-30T09:18:55Z</time>
      </trkpt>
      <trkpt lat="48.76299" lon="2.2464">
        <ele>170</ele>
        <time>2017-05-30T09:19:03Z</time>
      </trkpt>
      <trkpt lat="48.76318" lon="2.24708">
        <ele>171</ele>
        <time>2017-05-30T09:19:39Z</time>
      </trkpt>
      <trkpt lat="48.76321" lon="2.24714">
        <ele>171</ele>
        <time>2017-05-30T09:19:43Z</time>
      </trkpt>
      <trkpt lat="48.7633" lon="2.24742">
        <ele>172</ele>
        <time>2017-05-30T09:19:59Z</time>
      </trkpt>
      <trkpt lat="48.76332" lon="2.2475">
        <ele>172</ele>
        <time>2017-05-30T09:20:03Z</time>
      </trkpt>
      <trkpt lat="48.76338" lon="2.24762">
        <ele>171</ele>
        <time>2017-05-30T09:20:11Z</time>
      </trkpt>
      <trkpt lat="48.7635" lon="2.24821">
        <ele>171</ele>
        <time>2017-05-30T09:20:36Z</time>
      </trkpt>
      <trkpt lat="48.76363" lon="2.24849">
        <ele>170</ele>
        <time>2017-05-30T09:20:52Z</time>
      </trkpt>
      <trkpt lat="48.76361" lon="2.24855">
        <ele>169</ele>
        <time>2017-05-30T09:21:02Z</time>
      </trkpt>
      <trkpt lat="48.76364" lon="2.24863">
        <ele>167</ele>
        <time>2017-05-30T09:21:09Z</time>
      </trkpt>
      <trkpt lat="48.7636" lon="2.24867">
        <ele>166</ele>
        <time>2017-05-30T09:21:15Z</time>
      </trkpt>
      <trkpt lat="48.76349" lon="2.24868">
        <ele>165</ele>
        <time>2017-05-30T09:21:33Z</time>
      </trkpt>
      <trkpt lat="48.76342" lon="2.24878">
        <ele>164</ele>
        <time>2017-05-30T09:21:39Z</time>
      </trkpt>
      <trkpt lat="48.76332" lon="2.24884">
        <ele>164</ele>
        <time>2017-05-30T09:21:45Z</time>
      </trkpt>
      <trkpt lat="48.76327" lon="2.24889">
        <ele>164</ele>
        <time>2017-05-30T09:21:48Z</time>
      </trkpt>
      <trkpt lat="48.76312" lon="2.24892">
        <ele>163</ele>
        <time>2017-05-30T09:22:03Z</time>
      </trkpt>
      <trkpt lat="48.76308" lon="2.24897">
        <ele>163</ele>
        <time>2017-05-30T09:22:06Z</time>
      </trkpt>
      <trkpt lat="48.76303" lon="2.24899">
        <ele>162</ele>
        <time>2017-05-30T09:22:10Z</time>
      </trkpt>
      <trkpt lat="48.76294" lon="2.24908">
        <ele>162</ele>
        <time>2017-05-30T09:22:18Z</time>
      </trkpt>
      <trkpt lat="48.76274" lon="2.24921">
        <ele>161</ele>
        <time>2017-05-30T09:22:34Z</time>
      </trkpt>
      <trkpt lat="48.7627" lon="2.24926">
        <ele>160</ele>
        <time>2017-05-30T09:22:39Z</time>
      </trkpt>
      <trkpt lat="48.76268" lon="2.24933">
        <ele>160</ele>
        <time>2017-05-30T09:22:44Z</time>
      </trkpt>
      <trkpt lat="48.76269" lon="2.2494">
        <ele>160</ele>
        <time>2017-05-30T09:22:48Z</time>
      </trkpt>
      <trkpt lat="48.76272" lon="2.24945">
        <ele>159</ele>
        <time>2017-05-30T09:22:54Z</time>
      </trkpt>
      <trkpt lat="48.76275" lon="2.24952">
        <ele>160</ele>
        <time>2017-05-30T09:22:59Z</time>
      </trkpt>
      <trkpt lat="48.76277" lon="2.24959">
        <ele>160</ele>
        <time>2017-05-30T09:23:05Z</time>
      </trkpt>
      <trkpt lat="48.76293" lon="2.24978">
        <ele>161</ele>
        <time>2017-05-30T09:23:22Z</time>
      </trkpt>
      <trkpt lat="48.76296" lon="2.24993">
        <ele>161</ele>
        <time>2017-05-30T09:23:29Z</time>
      </trkpt>
      <trkpt lat="48.76297" lon="2.25001">
        <ele>161</ele>
        <time>2017-05-30T09:23:33Z</time>
      </trkpt>
      <trkpt lat="48.76296" lon="2.25008">
        <ele>162</ele>
        <time>2017-05-30T09:23:39Z</time>
      </trkpt>
      <trkpt lat="48.76296" lon="2.25037">
        <ele>162</ele>
        <time>2017-05-30T09:23:55Z</time>
      </trkpt>
      <trkpt lat="48.76293" lon="2.25052">
        <ele>162</ele>
        <time>2017-05-30T09:24:11Z</time>
      </trkpt>
      <trkpt lat="48.76294" lon="2.25066">
        <ele>162</ele>
        <time>2017-05-30T09:24:18Z</time>
      </trkpt>
      <trkpt lat="48.76292" lon="2.2508">
        <ele>162</ele>
        <time>2017-05-30T09:24:28Z</time>
      </trkpt>
      <trkpt lat="48.76292" lon="2.25095">
        <ele>162</ele>
        <time>2017-05-30T09:24:38Z</time>
      </trkpt>
      <trkpt lat="48.76283" lon="2.25136">
        <ele>162</ele>
        <time>2017-05-30T09:24:56Z</time>
      </trkpt>
      <trkpt lat="48.76283" lon="2.2515">
        <ele>162</ele>
        <time>2017-05-30T09:25:06Z</time>
      </trkpt>
      <trkpt lat="48.76288" lon="2.25163">
        <ele>162</ele>
        <time>2017-05-30T09:25:13Z</time>
      </trkpt>
      <trkpt lat="48.76294" lon="2.25174">
        <ele>162</ele>
        <time>2017-05-30T09:25:20Z</time>
      </trkpt>
      <trkpt lat="48.76299" lon="2.25187">
        <ele>163</ele>
        <time>2017-05-30T09:25:27Z</time>
      </trkpt>
      <trkpt lat="48.76301" lon="2.25216">
        <ele>163</ele>
        <time>2017-05-30T09:25:41Z</time>
      </trkpt>
      <trkpt lat="48.76295" lon="2.25228">
        <ele>162</ele>
        <time>2017-05-30T09:25:55Z</time>
      </trkpt>
      <trkpt lat="48.76286" lon="2.25235">
        <ele>161</ele>
        <time>2017-05-30T09:26:01Z</time>
      </trkpt>
      <trkpt lat="48.76262" lon="2.25258">
        <ele>160</ele>
        <time>2017-05-30T09:26:27Z</time>
      </trkpt>
      <trkpt lat="48.76255" lon="2.25268">
        <ele>158</ele>
        <time>2017-05-30T09:26:35Z</time>
      </trkpt>
      <trkpt lat="48.76247" lon="2.25274">
        <ele>158</ele>
        <time>2017-05-30T09:26:42Z</time>
      </trkpt>
      <trkpt lat="48.76224" lon="2.25301">
        <ele>153</ele>
        <time>2017-05-30T09:27:05Z</time>
      </trkpt>
      <trkpt lat="48.76227" lon="2.25316">
        <ele>152</ele>
        <time>2017-05-30T09:27:16Z</time>
      </trkpt>
      <trkpt lat="48.76232" lon="2.25327">
        <ele>152</ele>
        <time>2017-05-30T09:27:24Z</time>
      </trkpt>
      <trkpt lat="48.76246" lon="2.25341">
        <ele>152</ele>
        <time>2017-05-30T09:27:37Z</time>
      </trkpt>
      <trkpt lat="48.76253" lon="2.25375">
        <ele>153</ele>
        <time>2017-05-30T09:27:58Z</time>
      </trkpt>
      <trkpt lat="48.76276" lon="2.25373">
        <ele>153</ele>
        <time>2017-05-30T09:28:18Z</time>
      </trkpt>
      <trkpt lat="48.7632" lon="2.25399">
        <ele>156</ele>
        <time>2017-05-30T09:28:59Z</time>
      </trkpt>
      <trkpt lat="48.76342" lon="2.25413">
        <ele>158</ele>
        <time>2017-05-30T09:29:18Z</time>
      </trkpt>
      <trkpt lat="48.76355" lon="2.25476">
        <ele>160</ele>
        <time>2017-05-30T09:30:20Z</time>
      </trkpt>
      <trkpt lat="48.76349" lon="2.25509">
        <ele>159</ele>
        <time>2017-05-30T09:30:50Z</time>
      </trkpt>
      <trkpt lat="48.76364" lon="2.25574">
        <ele>159</ele>
        <time>2017-05-30T09:31:37Z</time>
      </trkpt>
      <trkpt lat="48.76372" lon="2.25601">
        <ele>159</ele>
        <time>2017-05-30T09:31:53Z</time>
      </trkpt>
      <trkpt lat="48.7638" lon="2.25611">
        <ele>159</ele>
        <time>2017-05-30T09:32:04Z</time>
      </trkpt>
      <trkpt lat="48.76397" lon="2.25624">
        <ele>158</ele>
        <time>2017-05-30T09:32:23Z</time>
      </trkpt>
      <trkpt lat="48.76405" lon="2.25614">
        <ele>158</ele>
        <time>2017-05-30T09:32:36Z</time>
      </trkpt>
      <trkpt lat="48.76411" lon="2.25603">
        <ele>158</ele>
        <time>2017-05-30T09:32:44Z</time>
      </trkpt>
      <trkpt lat="48.7642" lon="2.25609">
        <ele>157</ele>
        <time>2017-05-30T09:32:57Z</time>
      </trkpt>
      <trkpt lat="48.76436" lon="2.25633">
        <ele>152</ele>
        <time>2017-05-30T09:33:58Z</time>
      </trkpt>
      <trkpt lat="48.76446" lon="2.25665">
        <ele>147</ele>
        <time>2017-05-30T09:35:46Z</time>
      </trkpt>
      <trkpt lat="48.76468" lon="2.25721">
        <ele>142</ele>
        <time>2017-05-30T09:37:59Z</time>
      </trkpt>
      <trkpt lat="48.76474" lon="2.25757">
        <ele>140</ele>
        <time>2017-05-30T09:38:38Z</time>
      </trkpt>
      <trkpt lat="48.76486" lon="2.25809">
        <ele>138</ele>
        <time>2017-05-30T09:39:30Z</time>
      </trkpt>
      <trkpt lat="48.76503" lon="2.25832">
        <ele>140</ele>
        <time>2017-05-30T09:39:53Z</time>
      </trkpt>
      <trkpt lat="48.76529" lon="2.25824">
        <ele>143</ele>
        <time>2017-05-30T09:40:17Z</time>
      </trkpt>
      <trkpt lat="48.76551" lon="2.25834">
        <ele>145</ele>
        <time>2017-05-30T09:40:41Z</time>
      </trkpt>
      <trkpt lat="48.7656" lon="2.25878">
        <ele>149</ele>
        <time>2017-05-30T09:41:43Z</time>
      </trkpt>
      <trkpt lat="48.76553" lon="2.25948">
        <ele>147</ele>
        <time>2017-05-30T09:42:24Z</time>
      </trkpt>
      <trkpt lat="48.76546" lon="2.2598">
        <ele>145</ele>
        <time>2017-05-30T09:42:47Z</time>
      </trkpt>
      <trkpt lat="48.76559" lon="2.26017">
        <ele>144</ele>
        <time>2017-05-30T09:43:59Z</time>
      </trkpt>
      <trkpt lat="48.76575" lon="2.26042">
        <ele>144</ele>
        <time>2017-05-30T09:44:21Z</time>
      </trkpt>
      <trkpt lat="48.76596" lon="2.26056">
        <ele>146</ele>
        <time>2017-05-30T09:44:50Z</time>
      </trkpt>
      <trkpt lat="48.76624" lon="2.26056">
        <ele>156</ele>
        <time>2017-05-30T09:46:08Z</time>
      </trkpt>
      <trkpt lat="48.76646" lon="2.26066">
        <ele>156</ele>
        <time>2017-05-30T09:46:30Z</time>
      </trkpt>
      <trkpt lat="48.76669" lon="2.26068">
        <ele>158</ele>
        <time>2017-05-30T09:46:51Z</time>
      </trkpt>
      <trkpt lat="48.76678" lon="2.26066">
        <ele>158</ele>
        <time>2017-05-30T09:47:00Z</time>
      </trkpt>
      <trkpt lat="48.76686" lon="2.26073">
        <ele>158</ele>
        <time>2017-05-30T09:47:10Z</time>
      </trkpt>
      <trkpt lat="48.76695" lon="2.26088">
        <ele>158</ele>
        <time>2017-05-30T09:50:06Z</time>
      </trkpt>
      <trkpt lat="48.76696" lon="2.26102">
        <ele>158</ele>
        <time>2017-05-30T09:50:17Z</time>
      </trkpt>
      <trkpt lat="48.76694" lon="2.26159">
        <ele>157</ele>
        <time>2017-05-30T09:50:49Z</time>
      </trkpt>
      <trkpt lat="48.76694" lon="2.26174">
        <ele>156</ele>
        <time>2017-05-30T09:50:58Z</time>
      </trkpt>
      <trkpt lat="48.767" lon="2.26228">
        <ele>155</ele>
        <time>2017-05-30T09:51:30Z</time>
      </trkpt>
      <trkpt lat="48.76704" lon="2.26242">
        <ele>155</ele>
        <time>2017-05-30T09:51:40Z</time>
      </trkpt>
      <trkpt lat="48.76707" lon="2.2627">
        <ele>152</ele>
        <time>2017-05-30T09:51:56Z</time>
      </trkpt>
      <trkpt lat="48.76712" lon="2.26282">
        <ele>150</ele>
        <time>2017-05-30T09:52:05Z</time>
      </trkpt>
      <trkpt lat="48.76731" lon="2.26302">
        <ele>149</ele>
        <time>2017-05-30T09:52:27Z</time>
      </trkpt>
      <trkpt lat="48.7674" lon="2.26303">
        <ele>148</ele>
        <time>2017-05-30T09:52:35Z</time>
      </trkpt>
      <trkpt lat="48.7675" lon="2.26305">
        <ele>148</ele>
        <time>2017-05-30T09:52:44Z</time>
      </trkpt>
      <trkpt lat="48.76758" lon="2.2631">
        <ele>148</ele>
        <time>2017-05-30T09:52:53Z</time>
      </trkpt>
      <trkpt lat="48.76768" lon="2.26307">
        <ele>148</ele>
        <time>2017-05-30T09:53:03Z</time>
      </trkpt>
      <trkpt lat="48.76777" lon="2.26301">
        <ele>148</ele>
        <time>2017-05-30T09:53:11Z</time>
      </trkpt>
      <trkpt lat="48.76787" lon="2.26301">
        <ele>148</ele>
        <time>2017-05-30T09:54:07Z</time>
      </trkpt>
      <trkpt lat="48.76796" lon="2.263">
        <ele>148</ele>
        <time>2017-05-30T09:54:15Z</time>
      </trkpt>
      <trkpt lat="48.76805" lon="2.26295">
        <ele>147</ele>
        <time>2017-05-30T09:54:23Z</time>
      </trkpt>
      <trkpt lat="48.7682" lon="2.26278">
        <ele>145</ele>
        <time>2017-05-30T09:54:42Z</time>
      </trkpt>
      <trkpt lat="48.76828" lon="2.26253">
        <ele>143</ele>
        <time>2017-05-30T09:54:58Z</time>
      </trkpt>
      <trkpt lat="48.76829" lon="2.26239">
        <ele>142</ele>
        <time>2017-05-30T09:55:07Z</time>
      </trkpt>
      <trkpt lat="48.76824" lon="2.2621">
        <ele>141</ele>
        <time>2017-05-30T09:55:25Z</time>
      </trkpt>
      <trkpt lat="48.76819" lon="2.26197">
        <ele>140</ele>
        <time>2017-05-30T09:55:33Z</time>
      </trkpt>
      <trkpt lat="48.76818" lon="2.26182">
        <ele>140</ele>
        <time>2017-05-30T09:55:42Z</time>
      </trkpt>
      <trkpt lat="48.76816" lon="2.26168">
        <ele>140</ele>
        <time>2017-05-30T09:55:50Z</time>
      </trkpt>
      <trkpt lat="48.76814" lon="2.26154">
        <ele>140</ele>
        <time>2017-05-30T09:55:59Z</time>
      </trkpt>
      <trkpt lat="48.76822" lon="2.26146">
        <ele>141</ele>
        <time>2017-05-30T09:56:13Z</time>
      </trkpt>
      <trkpt lat="48.76829" lon="2.26156">
        <ele>141</ele>
        <time>2017-05-30T09:56:23Z</time>
      </trkpt>
      <trkpt lat="48.76842" lon="2.26177">
        <ele>139</ele>
        <time>2017-05-30T09:56:41Z</time>
      </trkpt>
      <trkpt lat="48.7685" lon="2.26184">
        <ele>138</ele>
        <time>2017-05-30T09:56:50Z</time>
      </trkpt>
      <trkpt lat="48.76859" lon="2.26188">
        <ele>138</ele>
        <time>2017-05-30T09:56:58Z</time>
      </trkpt>
      <trkpt lat="48.76869" lon="2.26192">
        <ele>138</ele>
        <time>2017-05-30T09:57:08Z</time>
      </trkpt>
      <trkpt lat="48.76878" lon="2.26194">
        <ele>139</ele>
        <time>2017-05-30T09:57:18Z</time>
      </trkpt>
      <trkpt lat="48.76887" lon="2.26198">
        <ele>138</ele>
        <time>2017-05-30T09:57:29Z</time>
      </trkpt>
      <trkpt lat="48.76895" lon="2.26195">
        <ele>138</ele>
        <time>2017-05-30T09:57:36Z</time>
      </trkpt>
      <trkpt lat="48.76924" lon="2.26194">
        <ele>136</ele>
        <time>2017-05-30T09:58:02Z</time>
      </trkpt>
      <trkpt lat="48.76925" lon="2.26179">
        <ele>136</ele>
        <time>2017-05-30T09:58:16Z</time>
      </trkpt>
      <trkpt lat="48.76923" lon="2.26164">
        <ele>135</ele>
        <time>2017-05-30T09:58:25Z</time>
      </trkpt>
      <trkpt lat="48.76919" lon="2.26151">
        <ele>135</ele>
        <time>2017-05-30T09:58:34Z</time>
      </trkpt>
      <trkpt lat="48.76923" lon="2.26137">
        <ele>134</ele>
        <time>2017-05-30T09:58:41Z</time>
      </trkpt>
      <trkpt lat="48.76932" lon="2.26132">
        <ele>134</ele>
        <time>2017-05-30T09:58:49Z</time>
      </trkpt>
      <trkpt lat="48.76947" lon="2.26149">
        <ele>133</ele>
        <time>2017-05-30T09:59:04Z</time>
      </trkpt>
      <trkpt lat="48.76958" lon="2.26172">
        <ele>132</ele>
        <time>2017-05-30T09:59:20Z</time>
      </trkpt>
      <trkpt lat="48.76967" lon="2.26214">
        <ele>131</ele>
        <time>2017-05-30T09:59:44Z</time>
      </trkpt>
      <trkpt lat="48.76968" lon="2.26228">
        <ele>131</ele>
        <time>2017-05-30T09:59:52Z</time>
      </trkpt>
      <trkpt lat="48.76967" lon="2.26256">
        <ele>130</ele>
        <time>2017-05-30T10:00:06Z</time>
      </trkpt>
      <trkpt lat="48.76968" lon="2.26269">
        <ele>130</ele>
        <time>2017-05-30T10:00:13Z</time>
      </trkpt>
      <trkpt lat="48.76959" lon="2.26323">
        <ele>128</ele>
        <time>2017-05-30T10:00:45Z</time>
      </trkpt>
      <trkpt lat="48.76954" lon="2.26336">
        <ele>128</ele>
        <time>2017-05-30T10:00:52Z</time>
      </trkpt>
      <trkpt lat="48.76962" lon="2.26378">
        <ele>126</ele>
        <time>2017-05-30T10:01:18Z</time>
      </trkpt>
      <trkpt lat="48.76967" lon="2.26389">
        <ele>125</ele>
        <time>2017-05-30T10:01:26Z</time>
      </trkpt>
      <trkpt lat="48.76975" lon="2.26396">
        <ele>124</ele>
        <time>2017-05-30T10:01:34Z</time>
      </trkpt>
      <trkpt lat="48.76982" lon="2.26405">
        <ele>123</ele>
        <time>2017-05-30T10:01:45Z</time>
      </trkpt>
      <trkpt lat="48.77009" lon="2.26388">
        <ele>122</ele>
        <time>2017-05-30T10:02:14Z</time>
      </trkpt>
      <trkpt lat="48.77015" lon="2.26377">
        <ele>122</ele>
        <time>2017-05-30T10:02:22Z</time>
      </trkpt>
      <trkpt lat="48.77007" lon="2.26368">
        <ele>121</ele>
        <time>2017-05-30T10:02:31Z</time>
      </trkpt>
      <trkpt lat="48.77001" lon="2.26341">
        <ele>123</ele>
        <time>2017-05-30T10:02:52Z</time>
      </trkpt>
      <trkpt lat="48.77003" lon="2.26312">
        <ele>123</ele>
        <time>2017-05-30T10:03:10Z</time>
      </trkpt>
      <trkpt lat="48.76999" lon="2.26299">
        <ele>124</ele>
        <time>2017-05-30T10:03:17Z</time>
      </trkpt>
      <trkpt lat="48.76999" lon="2.26284">
        <ele>124</ele>
        <time>2017-05-30T10:03:48Z</time>
      </trkpt>
      <trkpt lat="48.76998" lon="2.26241">
        <ele>125</ele>
        <time>2017-05-30T10:04:25Z</time>
      </trkpt>
      <trkpt lat="48.76992" lon="2.26199">
        <ele>126</ele>
        <time>2017-05-30T10:04:50Z</time>
      </trkpt>
      <trkpt lat="48.76987" lon="2.26187">
        <ele>127</ele>
        <time>2017-05-30T10:04:58Z</time>
      </trkpt>
      <trkpt lat="48.76985" lon="2.26159">
        <ele>128</ele>
        <time>2017-05-30T10:05:13Z</time>
      </trkpt>
      <trkpt lat="48.76981" lon="2.26146">
        <ele>128</ele>
        <time>2017-05-30T10:05:25Z</time>
      </trkpt>
      <trkpt lat="48.76968" lon="2.26123">
        <ele>129</ele>
        <time>2017-05-30T10:05:43Z</time>
      </trkpt>
      <trkpt lat="48.76965" lon="2.26109">
        <ele>130</ele>
        <time>2017-05-30T10:05:54Z</time>
      </trkpt>
      <trkpt lat="48.76962" lon="2.26096">
        <ele>130</ele>
        <time>2017-05-30T10:06:02Z</time>
      </trkpt>
      <trkpt lat="48.76957" lon="2.26084">
        <ele>131</ele>
        <time>2017-05-30T10:06:10Z</time>
      </trkpt>
      <trkpt lat="48.76953" lon="2.26069">
        <ele>131</ele>
        <time>2017-05-30T10:06:19Z</time>
      </trkpt>
      <trkpt lat="48.76951" lon="2.26055">
        <ele>130</ele>
        <time>2017-05-30T10:06:31Z</time>
      </trkpt>
      <trkpt lat="48.76968" lon="2.26042">
        <ele>127</ele>
        <time>2017-05-30T10:06:51Z</time>
      </trkpt>
      <trkpt lat="48.76977" lon="2.26042">
        <ele>126</ele>
        <time>2017-05-30T10:06:58Z</time>
      </trkpt>
      <trkpt lat="48.76986" lon="2.26046">
        <ele>125</ele>
        <time>2017-05-30T10:07:06Z</time>
      </trkpt>
      <trkpt lat="48.77004" lon="2.26053">
        <ele>123</ele>
        <time>2017-05-30T10:07:22Z</time>
      </trkpt>
      <trkpt lat="48.77013" lon="2.26054">
        <ele>123</ele>
        <time>2017-05-30T10:07:33Z</time>
      </trkpt>
      <trkpt lat="48.77022" lon="2.2605">
        <ele>122</ele>
        <time>2017-05-30T10:07:40Z</time>
      </trkpt>
      <trkpt lat="48.77031" lon="2.26043">
        <ele>122</ele>
        <time>2017-05-30T10:07:48Z</time>
      </trkpt>
      <trkpt lat="48.77038" lon="2.26032">
        <ele>123</ele>
        <time>2017-05-30T10:07:58Z</time>
      </trkpt>
      <trkpt lat="48.77047" lon="2.26026">
        <ele>123</ele>
        <time>2017-05-30T10:08:07Z</time>
      </trkpt>
      <trkpt lat="48.77057" lon="2.26025">
        <ele>124</ele>
        <time>2017-05-30T10:08:14Z</time>
      </trkpt>
      <trkpt lat="48.77065" lon="2.2603">
        <ele>124</ele>
        <time>2017-05-30T10:08:22Z</time>
      </trkpt>
      <trkpt lat="48.77099" lon="2.2605">
        <ele>129</ele>
        <time>2017-05-30T10:09:00Z</time>
      </trkpt>
      <trkpt lat="48.77106" lon="2.26059">
        <ele>131</ele>
        <time>2017-05-30T10:09:10Z</time>
      </trkpt>
      <trkpt lat="48.77115" lon="2.26062">
        <ele>132</ele>
        <time>2017-05-30T10:09:21Z</time>
      </trkpt>
      <trkpt lat="48.77125" lon="2.26064">
        <ele>134</ele>
        <time>2017-05-30T10:09:31Z</time>
      </trkpt>
      <trkpt lat="48.77144" lon="2.26067">
        <ele>136</ele>
        <time>2017-05-30T10:09:47Z</time>
      </trkpt>
      <trkpt lat="48.77164" lon="2.26065">
        <ele>138</ele>
        <time>2017-05-30T10:10:03Z</time>
      </trkpt>
      <trkpt lat="48.77182" lon="2.26076">
        <ele>138</ele>
        <time>2017-05-30T10:10:20Z</time>
      </trkpt>
      <trkpt lat="48.77191" lon="2.26077">
        <ele>138</ele>
        <time>2017-05-30T10:10:28Z</time>
      </trkpt>
      <trkpt lat="48.77209" lon="2.26089">
        <ele>139</ele>
        <time>2017-05-30T10:10:43Z</time>
      </trkpt>
      <trkpt lat="48.77216" lon="2.26099">
        <ele>139</ele>
        <time>2017-05-30T10:10:51Z</time>
      </trkpt>
      <trkpt lat="48.77219" lon="2.26113">
        <ele>138</ele>
        <time>2017-05-30T10:11:01Z</time>
      </trkpt>
      <trkpt lat="48.77232" lon="2.26134">
        <ele>137</ele>
        <time>2017-05-30T10:11:23Z</time>
      </trkpt>
      <trkpt lat="48.77239" lon="2.26144">
        <ele>138</ele>
        <time>2017-05-30T10:11:34Z</time>
      </trkpt>
      <trkpt lat="48.77248" lon="2.26147">
        <ele>137</ele>
        <time>2017-05-30T10:11:44Z</time>
      </trkpt>
      <trkpt lat="48.77257" lon="2.26146">
        <ele>136</ele>
        <time>2017-05-30T10:11:56Z</time>
      </trkpt>
      <trkpt lat="48.77266" lon="2.26151">
        <ele>133</ele>
        <time>2017-05-30T10:12:08Z</time>
      </trkpt>
      <trkpt lat="48.77273" lon="2.2616">
        <ele>131</ele>
        <time>2017-05-30T10:12:23Z</time>
      </trkpt>
      <trkpt lat="48.77283" lon="2.26163">
        <ele>129</ele>
        <time>2017-05-30T10:12:30Z</time>
      </trkpt>
      <trkpt lat="48.77294" lon="2.26172">
        <ele>129</ele>
        <time>2017-05-30T10:12:50Z</time>
      </trkpt>
      <trkpt lat="48.773" lon="2.26186">
        <ele>129</ele>
        <time>2017-05-30T10:13:29Z</time>
      </trkpt>
      <trkpt lat="48.77304" lon="2.26173">
        <ele>129</ele>
        <time>2017-05-30T10:13:44Z</time>
      </trkpt>
      <trkpt lat="48.77309" lon="2.26161">
        <ele>129</ele>
        <time>2017-05-30T10:13:57Z</time>
      </trkpt>
      <trkpt lat="48.77311" lon="2.26146">
        <ele>130</ele>
        <time>2017-05-30T10:14:07Z</time>
      </trkpt>
      <trkpt lat="48.7731" lon="2.26132">
        <ele>131</ele>
        <time>2017-05-30T10:14:18Z</time>
      </trkpt>
      <trkpt lat="48.7732" lon="2.26078">
        <ele>135</ele>
        <time>2017-05-30T10:14:58Z</time>
      </trkpt>
      <trkpt lat="48.77323" lon="2.2605">
        <ele>137</ele>
        <time>2017-05-30T10:15:20Z</time>
      </trkpt>
      <trkpt lat="48.77314" lon="2.26044">
        <ele>137</ele>
        <time>2017-05-30T10:15:27Z</time>
      </trkpt>
      <trkpt lat="48.77306" lon="2.2606">
        <ele>135</ele>
        <time>2017-05-30T10:16:13Z</time>
      </trkpt>
      <trkpt lat="48.77306" lon="2.26051">
        <ele>134</ele>
        <time>2017-05-30T10:18:54Z</time>
      </trkpt>
      <trkpt lat="48.77313" lon="2.26041">
        <ele>134</ele>
        <time>2017-05-30T10:19:03Z</time>
      </trkpt>
      <trkpt lat="48.77321" lon="2.26049">
        <ele>134</ele>
        <time>2017-05-30T10:19:16Z</time>
      </trkpt>
      <trkpt lat="48.77315" lon="2.26076">
        <ele>134</ele>
        <time>2017-05-30T10:19:36Z</time>
      </trkpt>
      <trkpt lat="48.7732" lon="2.26086">
        <ele>134</ele>
        <time>2017-05-30T10:19:47Z</time>
      </trkpt>
      <trkpt lat="48.77319" lon="2.261">
        <ele>133</ele>
        <time>2017-05-30T10:19:57Z</time>
      </trkpt>
      <trkpt lat="48.77316" lon="2.26113">
        <ele>132</ele>
        <time>2017-05-30T10:20:08Z</time>
      </trkpt>
      <trkpt lat="48.77315" lon="2.26127">
        <ele>131</ele>
        <time>2017-05-30T10:20:20Z</time>
      </trkpt>
      <trkpt lat="48.77311" lon="2.26141">
        <ele>130</ele>
        <time>2017-05-30T10:20:29Z</time>
      </trkpt>
      <trkpt lat="48.77305" lon="2.26169">
        <ele>128</ele>
        <time>2017-05-30T10:20:47Z</time>
      </trkpt>
      <trkpt lat="48.77301" lon="2.26182">
        <ele>128</ele>
        <time>2017-05-30T10:20:54Z</time>
      </trkpt>
      <trkpt lat="48.77302" lon="2.26197">
        <ele>127</ele>
        <time>2017-05-30T10:21:04Z</time>
      </trkpt>
      <trkpt lat="48.77304" lon="2.26227">
        <ele>126</ele>
        <time>2017-05-30T10:21:18Z</time>
      </trkpt>
      <trkpt lat="48.7731" lon="2.26239">
        <ele>126</ele>
        <time>2017-05-30T10:21:28Z</time>
      </trkpt>
      <trkpt lat="48.77307" lon="2.26253">
        <ele>126</ele>
        <time>2017-05-30T10:21:39Z</time>
      </trkpt>
      <trkpt lat="48.77315" lon="2.26279">
        <ele>126</ele>
        <time>2017-05-30T10:21:55Z</time>
      </trkpt>
      <trkpt lat="48.77338" lon="2.26325">
        <ele>127</ele>
        <time>2017-05-30T10:22:28Z</time>
      </trkpt>
      <trkpt lat="48.77346" lon="2.26332">
        <ele>128</ele>
        <time>2017-05-30T10:22:36Z</time>
      </trkpt>
      <trkpt lat="48.77358" lon="2.26354">
        <ele>128</ele>
        <time>2017-05-30T10:22:57Z</time>
      </trkpt>
      <trkpt lat="48.77377" lon="2.26365">
        <ele>130</ele>
        <time>2017-05-30T10:23:15Z</time>
      </trkpt>
      <trkpt lat="48.77404" lon="2.26371">
        <ele>132</ele>
        <time>2017-05-30T10:23:43Z</time>
      </trkpt>
      <trkpt lat="48.77413" lon="2.26368">
        <ele>132</ele>
        <time>2017-05-30T10:23:49Z</time>
      </trkpt>
      <trkpt lat="48.77431" lon="2.26378">
        <ele>132</ele>
        <time>2017-05-30T10:24:04Z</time>
      </trkpt>
      <trkpt lat="48.77438" lon="2.26388">
        <ele>132</ele>
        <time>2017-05-30T10:24:14Z</time>
      </trkpt>
      <trkpt lat="48.77441" lon="2.26403">
        <ele>132</ele>
        <time>2017-05-30T10:24:23Z</time>
      </trkpt>
      <trkpt lat="48.77455" lon="2.26424">
        <ele>130</ele>
        <time>2017-05-30T10:24:36Z</time>
      </trkpt>
      <trkpt lat="48.77457" lon="2.26439">
        <ele>129</ele>
        <time>2017-05-30T10:24:46Z</time>
      </trkpt>
      <trkpt lat="48.77459" lon="2.26452">
        <ele>129</ele>
        <time>2017-05-30T10:24:55Z</time>
      </trkpt>
      <trkpt lat="48.7746" lon="2.26467">
        <ele>129</ele>
        <time>2017-05-30T10:25:02Z</time>
      </trkpt>
      <trkpt lat="48.77459" lon="2.2648">
        <ele>127</ele>
        <time>2017-05-30T10:25:10Z</time>
      </trkpt>
      <trkpt lat="48.77462" lon="2.26494">
        <ele>126</ele>
        <time>2017-05-30T10:25:24Z</time>
      </trkpt>
      <trkpt lat="48.7746" lon="2.26508">
        <ele>125</ele>
        <time>2017-05-30T10:25:31Z</time>
      </trkpt>
      <trkpt lat="48.77454" lon="2.2652">
        <ele>125</ele>
        <time>2017-05-30T10:25:36Z</time>
      </trkpt>
      <trkpt lat="48.77452" lon="2.26534">
        <ele>125</ele>
        <time>2017-05-30T10:25:42Z</time>
      </trkpt>
      <trkpt lat="48.77453" lon="2.26563">
        <ele>124</ele>
        <time>2017-05-30T10:25:56Z</time>
      </trkpt>
      <trkpt lat="48.77448" lon="2.26576">
        <ele>123</ele>
        <time>2017-05-30T10:26:05Z</time>
      </trkpt>
      <trkpt lat="48.77439" lon="2.26583">
        <ele>123</ele>
        <time>2017-05-30T10:26:12Z</time>
      </trkpt>
      <trkpt lat="48.7743" lon="2.26581">
        <ele>121</ele>
        <time>2017-05-30T10:26:23Z</time>
      </trkpt>
      <trkpt lat="48.77408" lon="2.26613">
        <ele>119</ele>
        <time>2017-05-30T10:26:51Z</time>
      </trkpt>
      <trkpt lat="48.77393" lon="2.2663">
        <ele>117</ele>
        <time>2017-05-30T10:27:08Z</time>
      </trkpt>
      <trkpt lat="48.77393" lon="2.26644">
        <ele>116</ele>
        <time>2017-05-30T10:27:17Z</time>
      </trkpt>
      <trkpt lat="48.77388" lon="2.26657">
        <ele>114</ele>
        <time>2017-05-30T10:27:31Z</time>
      </trkpt>
      <trkpt lat="48.77383" lon="2.26669">
        <ele>114</ele>
        <time>2017-05-30T10:27:40Z</time>
      </trkpt>
      <trkpt lat="48.77376" lon="2.2668">
        <ele>112</ele>
        <time>2017-05-30T10:27:51Z</time>
      </trkpt>
      <trkpt lat="48.77371" lon="2.26692">
        <ele>112</ele>
        <time>2017-05-30T10:27:59Z</time>
      </trkpt>
      <trkpt lat="48.77369" lon="2.26707">
        <ele>111</ele>
        <time>2017-05-30T10:28:06Z</time>
      </trkpt>
      <trkpt lat="48.77362" lon="2.26729">
        <ele>110</ele>
        <time>2017-05-30T10:28:20Z</time>
      </trkpt>
      <trkpt lat="48.77353" lon="2.26735">
        <ele>109</ele>
        <time>2017-05-30T10:28:25Z</time>
      </trkpt>
      <trkpt lat="48.77355" lon="2.2677">
        <ele>108</ele>
        <time>2017-05-30T10:28:54Z</time>
      </trkpt>
      <trkpt lat="48.77388" lon="2.2682">
        <ele>107</ele>
        <time>2017-05-30T10:29:42Z</time>
      </trkpt>
      <trkpt lat="48.77396" lon="2.2683">
        <ele>106</ele>
        <time>2017-05-30T10:29:48Z</time>
      </trkpt>
      <trkpt lat="48.77396" lon="2.26859">
        <ele>104</ele>
        <time>2017-05-30T10:30:09Z</time>
      </trkpt>
      <trkpt lat="48.77391" lon="2.26886">
        <ele>102</ele>
        <time>2017-05-30T10:30:28Z</time>
      </trkpt>
      <trkpt lat="48.77384" lon="2.26895">
        <ele>101</ele>
        <time>2017-05-30T10:30:40Z</time>
      </trkpt>
      <trkpt lat="48.7738" lon="2.26909">
        <ele>100</ele>
        <time>2017-05-30T10:30:51Z</time>
      </trkpt>
      <trkpt lat="48.77377" lon="2.26938">
        <ele>99</ele>
        <time>2017-05-30T10:31:12Z</time>
      </trkpt>
      <trkpt lat="48.77385" lon="2.26945">
        <ele>98</ele>
        <time>2017-05-30T10:31:20Z</time>
      </trkpt>
      <trkpt lat="48.77388" lon="2.26974">
        <ele>98</ele>
        <time>2017-05-30T10:31:37Z</time>
      </trkpt>
      <trkpt lat="48.77392" lon="2.26988">
        <ele>97</ele>
        <time>2017-05-30T10:31:48Z</time>
      </trkpt>
      <trkpt lat="48.77392" lon="2.27001">
        <ele>97</ele>
        <time>2017-05-30T10:32:45Z</time>
      </trkpt>
      <trkpt lat="48.77397" lon="2.27022">
        <ele>97</ele>
        <time>2017-05-30T10:33:39Z</time>
      </trkpt>
      <trkpt lat="48.77411" lon="2.27024">
        <ele>97</ele>
        <time>2017-05-30T10:34:27Z</time>
      </trkpt>
      <trkpt lat="48.7742" lon="2.27029">
        <ele>97</ele>
        <time>2017-05-30T10:34:36Z</time>
      </trkpt>
      <trkpt lat="48.7743" lon="2.27029">
        <ele>98</ele>
        <time>2017-05-30T10:34:46Z</time>
      </trkpt>
      <trkpt lat="48.77437" lon="2.27039">
        <ele>98</ele>
        <time>2017-05-30T10:34:54Z</time>
      </trkpt>
      <trkpt lat="48.77447" lon="2.27043">
        <ele>99</ele>
        <time>2017-05-30T10:35:35Z</time>
      </trkpt>
      <trkpt lat="48.77454" lon="2.27033">
        <ele>98</ele>
        <time>2017-05-30T10:36:23Z</time>
      </trkpt>
      <trkpt lat="48.77444" lon="2.2701">
        <ele>99</ele>
        <time>2017-05-30T10:38:10Z</time>
      </trkpt>
      <trkpt lat="48.77451" lon="2.26998">
        <ele>99</ele>
        <time>2017-05-30T10:38:42Z</time>
      </trkpt>
      <trkpt lat="48.77461" lon="2.26998">
        <ele>99</ele>
        <time>2017-05-30T10:39:48Z</time>
      </trkpt>
      <trkpt lat="48.7747" lon="2.27004">
        <ele>99</ele>
        <time>2017-05-30T10:40:07Z</time>
      </trkpt>
      <trkpt lat="48.77475" lon="2.27017">
        <ele>100</ele>
        <time>2017-05-30T10:40:39Z</time>
      </trkpt>
      <trkpt lat="48.77469" lon="2.27034">
        <ele>101</ele>
        <time>2017-05-30T10:41:18Z</time>
      </trkpt>
      <trkpt lat="48.7745" lon="2.27053">
        <ele>101</ele>
        <time>2017-05-30T10:44:13Z</time>
      </trkpt>
      <trkpt lat="48.7744" lon="2.27065">
        <ele>100</ele>
        <time>2017-05-30T10:44:34Z</time>
      </trkpt>
      <trkpt lat="48.77437" lon="2.27078">
        <ele>99</ele>
        <time>2017-05-30T10:44:42Z</time>
      </trkpt>
      <trkpt lat="48.77433" lon="2.27095">
        <ele>99</ele>
        <time>2017-05-30T10:45:24Z</time>
      </trkpt>
      <trkpt lat="48.7742" lon="2.27092">
        <ele>99</ele>
        <time>2017-05-30T10:48:56Z</time>
      </trkpt>
      <trkpt lat="48.77415" lon="2.27068">
        <ele>98</ele>
        <time>2017-05-30T10:50:53Z</time>
      </trkpt>
      <trkpt lat="48.77406" lon="2.27062">
        <ele>97</ele>
        <time>2017-05-30T10:51:06Z</time>
      </trkpt>
      <trkpt lat="48.77387" lon="2.27062">
        <ele>96</ele>
        <time>2017-05-30T10:51:33Z</time>
      </trkpt>
      <trkpt lat="48.7738" lon="2.27052">
        <ele>96</ele>
        <time>2017-05-30T10:51:51Z</time>
      </trkpt>
      <trkpt lat="48.7738" lon="2.27039">
        <ele>96</ele>
        <time>2017-05-30T10:52:05Z</time>
      </trkpt>
      <trkpt lat="48.77387" lon="2.2703">
        <ele>96</ele>
        <time>2017-05-30T10:52:14Z</time>
      </trkpt>
      <trkpt lat="48.77389" lon="2.27004">
        <ele>96</ele>
        <time>2017-05-30T10:54:04Z</time>
      </trkpt>
      <trkpt lat="48.77388" lon="2.2699">
        <ele>96</ele>
        <time>2017-05-30T10:54:17Z</time>
      </trkpt>
      <trkpt lat="48.77413" lon="2.26967">
        <ele>98</ele>
        <time>2017-05-30T10:54:53Z</time>
      </trkpt>
      <trkpt lat="48.77421" lon="2.26961">
        <ele>98</ele>
        <time>2017-05-30T10:55:02Z</time>
      </trkpt>
      <trkpt lat="48.77429" lon="2.26952">
        <ele>98</ele>
        <time>2017-05-30T10:55:14Z</time>
      </trkpt>
      <trkpt lat="48.77434" lon="2.2694">
        <ele>99</ele>
        <time>2017-05-30T10:55:24Z</time>
      </trkpt>
      <trkpt lat="48.77436" lon="2.26925">
        <ele>99</ele>
        <time>2017-05-30T10:55:34Z</time>
      </trkpt>
      <trkpt lat="48.77424" lon="2.26877">
        <ele>101</ele>
        <time>2017-05-30T10:56:14Z</time>
      </trkpt>
      <trkpt lat="48.77417" lon="2.26869">
        <ele>102</ele>
        <time>2017-05-30T10:56:25Z</time>
      </trkpt>
      <trkpt lat="48.77408" lon="2.26868">
        <ele>103</ele>
        <time>2017-05-30T10:56:36Z</time>
      </trkpt>
      <trkpt lat="48.77399" lon="2.26859">
        <ele>101</ele>
        <time>2017-05-30T11:37:36Z</time>
      </trkpt>
      <trkpt lat="48.77389" lon="2.2684">
        <ele>103</ele>
        <time>2017-05-30T11:38:56Z</time>
      </trkpt>
      <trkpt lat="48.77366" lon="2.26792">
        <ele>105</ele>
        <time>2017-05-30T11:40:20Z</time>
      </trkpt>
      <trkpt lat="48.77349" lon="2.26769">
        <ele>106</ele>
        <time>2017-05-30T11:40:43Z</time>
      </trkpt>
      <trkpt lat="48.77313" lon="2.26797">
        <ele>103</ele>
        <time>2017-05-30T11:41:44Z</time>
      </trkpt>
      <trkpt lat="48.77297" lon="2.26812">
        <ele>102</ele>
        <time>2017-05-30T11:42:09Z</time>
      </trkpt>
      <trkpt lat="48.77288" lon="2.26818">
        <ele>101</ele>
        <time>2017-05-30T11:42:32Z</time>
      </trkpt>
      <trkpt lat="48.7728" lon="2.26814">
        <ele>101</ele>
        <time>2017-05-30T11:49:43Z</time>
      </trkpt>
      <trkpt lat="48.77267" lon="2.26827">
        <ele>101</ele>
        <time>2017-05-30T11:55:08Z</time>
      </trkpt>
      <trkpt lat="48.7726" lon="2.26837">
        <ele>99</ele>
        <time>2017-05-30T11:55:17Z</time>
      </trkpt>
      <trkpt lat="48.77255" lon="2.26849">
        <ele>99</ele>
        <time>2017-05-30T11:55:26Z</time>
      </trkpt>
      <trkpt lat="48.77237" lon="2.26871">
        <ele>97</ele>
        <time>2017-05-30T11:55:58Z</time>
      </trkpt>
      <trkpt lat="48.77231" lon="2.26882">
        <ele>96</ele>
        <time>2017-05-30T11:56:08Z</time>
      </trkpt>
      <trkpt lat="48.77223" lon="2.26901">
        <ele>95</ele>
        <time>2017-05-30T11:57:24Z</time>
      </trkpt>
      <trkpt lat="48.77209" lon="2.26914">
        <ele>95</ele>
        <time>2017-05-30T12:03:18Z</time>
      </trkpt>
      <trkpt lat="48.77194" lon="2.26916">
        <ele>95</ele>
        <time>2017-05-30T12:04:07Z</time>
      </trkpt>
      <trkpt lat="48.77187" lon="2.26927">
        <ele>96</ele>
        <time>2017-05-30T12:05:51Z</time>
      </trkpt>
      <trkpt lat="48.77176" lon="2.26931">
        <ele>95</ele>
        <time>2017-05-30T12:07:11Z</time>
      </trkpt>
      <trkpt lat="48.77167" lon="2.26922">
        <ele>95</ele>
        <time>2017-05-30T12:09:17Z</time>
      </trkpt>
      <trkpt lat="48.77159" lon="2.26915">
        <ele>95</ele>
        <time>2017-05-30T12:09:27Z</time>
      </trkpt>
      <trkpt lat="48.77166" lon="2.26919">
        <ele>94</ele>
        <time>2017-05-30T12:17:12Z</time>
      </trkpt>
      <trkpt lat="48.77171" lon="2.26932">
        <ele>94</ele>
        <time>2017-05-30T12:17:22Z</time>
      </trkpt>
      <trkpt lat="48.77177" lon="2.26942">
        <ele>94</ele>
        <time>2017-05-30T12:17:38Z</time>
      </trkpt>
      <trkpt lat="48.77181" lon="2.26957">
        <ele>93</ele>
        <time>2017-05-30T12:18:14Z</time>
      </trkpt>
      <trkpt lat="48.77186" lon="2.26971">
        <ele>93</ele>
        <time>2017-05-30T12:19:13Z</time>
      </trkpt>
      <trkpt lat="48.77187" lon="2.26986">
        <ele>93</ele>
        <time>2017-05-30T12:23:57Z</time>
      </trkpt>
      <trkpt lat="48.77194" lon="2.26998">
        <ele>93</ele>
        <time>2017-05-30T12:24:39Z</time>
      </trkpt>
      <trkpt lat="48.77187" lon="2.26994">
        <ele>92</ele>
        <time>2017-05-30T12:30:17Z</time>
      </trkpt>
      <trkpt lat="48.77178" lon="2.26994">
        <ele>93</ele>
        <time>2017-05-30T12:31:39Z</time>
      </trkpt>
      <trkpt lat="48.77176" lon="2.2701">
        <ele>93</ele>
        <time>2017-05-30T12:32:26Z</time>
      </trkpt>
      <trkpt lat="48.7718" lon="2.27034">
        <ele>91</ele>
        <time>2017-05-30T12:33:30Z</time>
      </trkpt>
      <trkpt lat="48.77189" lon="2.27038">
        <ele>91</ele>
        <time>2017-05-30T12:34:01Z</time>
      </trkpt>
      <trkpt lat="48.77189" lon="2.27054">
        <ele>91</ele>
        <time>2017-05-30T12:37:53Z</time>
      </trkpt>
      <trkpt lat="48.772" lon="2.27057">
        <ele>91</ele>
        <time>2017-05-30T12:40:27Z</time>
      </trkpt>
      <trkpt lat="48.77192" lon="2.27071">
        <ele>90</ele>
        <time>2017-05-30T12:42:32Z</time>
      </trkpt>
      <trkpt lat="48.77182" lon="2.27085">
        <ele>90</ele>
        <time>2017-05-30T12:43:31Z</time>
      </trkpt>
      <trkpt lat="48.77181" lon="2.27099">
        <ele>90</ele>
        <time>2017-05-30T12:43:45Z</time>
      </trkpt>
      <trkpt lat="48.77177" lon="2.27117">
        <ele>91</ele>
        <time>2017-05-30T12:44:16Z</time>
      </trkpt>
      <trkpt lat="48.77166" lon="2.27126">
        <ele>92</ele>
        <time>2017-05-30T12:47:28Z</time>
      </trkpt>
      <trkpt lat="48.77153" lon="2.27125">
        <ele>91</ele>
        <time>2017-05-30T12:48:32Z</time>
      </trkpt>
      <trkpt lat="48.77142" lon="2.2712">
        <ele>91</ele>
        <time>2017-05-30T12:49:55Z</time>
      </trkpt>
      <trkpt lat="48.7715" lon="2.27111">
        <ele>91</ele>
        <time>2017-05-30T12:51:57Z</time>
      </trkpt>
      <trkpt lat="48.7716" lon="2.2709">
        <ele>91</ele>
        <time>2017-05-30T12:54:04Z</time>
      </trkpt>
      <trkpt lat="48.77164" lon="2.27073">
        <ele>91</ele>
        <time>2017-05-30T12:56:59Z</time>
      </trkpt>
      <trkpt lat="48.77157" lon="2.2706">
        <ele>92</ele>
        <time>2017-05-30T13:01:44Z</time>
      </trkpt>
      <trkpt lat="48.7716" lon="2.27041">
        <ele>92</ele>
        <time>2017-05-30T13:02:17Z</time>
      </trkpt>
      <trkpt lat="48.7716" lon="2.27025">
        <ele>92</ele>
        <time>2017-05-30T13:02:53Z</time>
      </trkpt>
      <trkpt lat="48.77151" lon="2.2702">
        <ele>92</ele>
        <time>2017-05-30T13:03:03Z</time>
      </trkpt>
      <trkpt lat="48.77133" lon="2.27015">
        <ele>92</ele>
        <time>2017-05-30T13:03:20Z</time>
      </trkpt>
      <trkpt lat="48.77126" lon="2.27007">
        <ele>93</ele>
        <time>2017-05-30T13:03:34Z</time>
      </trkpt>
      <trkpt lat="48.7712" lon="2.27017">
        <ele>93</ele>
        <time>2017-05-30T13:04:57Z</time>
      </trkpt>
      <trkpt lat="48.77108" lon="2.27013">
        <ele>94</ele>
        <time>2017-05-30T13:05:51Z</time>
      </trkpt>
      <trkpt lat="48.77099" lon="2.26991">
        <ele>94</ele>
        <time>2017-05-30T13:06:17Z</time>
      </trkpt>
      <trkpt lat="48.77089" lon="2.26989">
        <ele>95</ele>
        <time>2017-05-30T13:06:42Z</time>
      </trkpt>
      <trkpt lat="48.7708" lon="2.2699">
        <ele>96</ele>
        <time>2017-05-30T13:09:52Z</time>
      </trkpt>
      <trkpt lat="48.77058" lon="2.26994">
        <ele>96</ele>
        <time>2017-05-30T13:10:28Z</time>
      </trkpt>
      <trkpt lat="48.77053" lon="2.27006">
        <ele>96</ele>
        <time>2017-05-30T13:10:43Z</time>
      </trkpt>
      <trkpt lat="48.77045" lon="2.27015">
        <ele>97</ele>
        <time>2017-05-30T13:11:08Z</time>
      </trkpt>
      <trkpt lat="48.77044" lon="2.27029">
        <ele>97</ele>
        <time>2017-05-30T13:13:30Z</time>
      </trkpt>
      <trkpt lat="48.77043" lon="2.27027">
        <ele>97</ele>
        <time>2017-05-30T13:15:44Z</time>
      </trkpt>
      <trkpt lat="48.77042" lon="2.27032">
        <ele>97</ele>
        <time>2017-05-30T13:20:26Z</time>
      </trkpt>
      <trkpt lat="48.77044" lon="2.27011">
        <ele>97</ele>
        <time>2017-05-30T13:21:47Z</time>
      </trkpt>
      <trkpt lat="48.77052" lon="2.26992">
        <ele>98</ele>
        <time>2017-05-30T13:22:56Z</time>
      </trkpt>
      <trkpt lat="48.77061" lon="2.26988">
        <ele>98</ele>
        <time>2017-05-30T13:23:09Z</time>
      </trkpt>
      <trkpt lat="48.7707" lon="2.26981">
        <ele>97</ele>
        <time>2017-05-30T13:23:22Z</time>
      </trkpt>
      <trkpt lat="48.77077" lon="2.26989">
        <ele>97</ele>
        <time>2017-05-30T13:23:30Z</time>
      </trkpt>
      <trkpt lat="48.7708" lon="2.27003">
        <ele>97</ele>
        <time>2017-05-30T13:23:37Z</time>
      </trkpt>
      <trkpt lat="48.77088" lon="2.27016">
        <ele>96</ele>
        <time>2017-05-30T13:23:55Z</time>
      </trkpt>
      <trkpt lat="48.77092" lon="2.27031">
        <ele>96</ele>
        <time>2017-05-30T13:24:57Z</time>
      </trkpt>
      <trkpt lat="48.77092" lon="2.27051">
        <ele>95</ele>
        <time>2017-05-30T13:25:52Z</time>
      </trkpt>
      <trkpt lat="48.77099" lon="2.27061">
        <ele>95</ele>
        <time>2017-05-30T13:26:28Z</time>
      </trkpt>
      <trkpt lat="48.77105" lon="2.27072">
        <ele>98</ele>
        <time>2017-05-30T13:26:55Z</time>
      </trkpt>
      <trkpt lat="48.7711" lon="2.27085">
        <ele>97</ele>
        <time>2017-05-30T13:27:22Z</time>
      </trkpt>
      <trkpt lat="48.77113" lon="2.27099">
        <ele>92</ele>
        <time>2017-05-30T13:27:57Z</time>
      </trkpt>
      <trkpt lat="48.77115" lon="2.27115">
        <ele>90</ele>
        <time>2017-05-30T13:31:30Z</time>
      </trkpt>
      <trkpt lat="48.77122" lon="2.27124">
        <ele>88</ele>
        <time>2017-05-30T13:31:48Z</time>
      </trkpt>
      <trkpt lat="48.77128" lon="2.27134">
        <ele>92</ele>
        <time>2017-05-30T13:33:08Z</time>
      </trkpt>
      <trkpt lat="48.77134" lon="2.2714">
        <ele>94</ele>
        <time>2017-05-30T13:35:36Z</time>
      </trkpt>
      <trkpt lat="48.77145" lon="2.27139">
        <ele>95</ele>
        <time>2017-05-30T13:36:03Z</time>
      </trkpt>
      <trkpt lat="48.77154" lon="2.27141">
        <ele>92</ele>
        <time>2017-05-30T13:36:14Z</time>
      </trkpt>
      <trkpt lat="48.77166" lon="2.27142">
        <ele>95</ele>
        <time>2017-05-30T13:37:29Z</time>
      </trkpt>
      <trkpt lat="48.77172" lon="2.2713">
        <ele>96</ele>
        <time>2017-05-30T13:37:58Z</time>
      </trkpt>
      <trkpt lat="48.77185" lon="2.27108">
        <ele>88</ele>
        <time>2017-05-30T13:38:20Z</time>
      </trkpt>
      <trkpt lat="48.77195" lon="2.27109">
        <ele>86</ele>
        <time>2017-05-30T13:38:34Z</time>
      </trkpt>
      <trkpt lat="48.77196" lon="2.2712">
        <ele>89</ele>
        <time>2017-05-30T13:44:45Z</time>
      </trkpt>
      <trkpt lat="48.77201" lon="2.27136">
        <ele>87</ele>
        <time>2017-05-30T13:45:27Z</time>
      </trkpt>
      <trkpt lat="48.77201" lon="2.27137">
        <ele>89</ele>
        <time>2017-05-30T13:46:34Z</time>
      </trkpt>
      <trkpt lat="48.7719" lon="2.27144">
        <ele>90</ele>
        <time>2017-05-30T13:49:43Z</time>
      </trkpt>
      <trkpt lat="48.77205" lon="2.27104">
        <ele>90</ele>
        <time>2017-05-30T13:53:17Z</time>
      </trkpt>
      <trkpt lat="48.77198" lon="2.27112">
        <ele>85</ele>
        <time>2017-05-30T13:53:20Z</time>
      </trkpt>
      <trkpt lat="48.77196" lon="2.27137">
        <ele>90</ele>
        <time>2017-05-30T13:54:51Z</time>
      </trkpt>
      <trkpt lat="48.77191" lon="2.27148">
        <ele>90</ele>
        <time>2017-05-30T13:55:08Z</time>
      </trkpt>
      <trkpt lat="48.77195" lon="2.27164">
        <ele>90</ele>
        <time>2017-05-30T13:55:30Z</time>
      </trkpt>
      <trkpt lat="48.77197" lon="2.2718">
        <ele>93</ele>
        <time>2017-05-30T13:55:58Z</time>
      </trkpt>
      <trkpt lat="48.77181" lon="2.27195">
        <ele>96</ele>
        <time>2017-05-30T13:56:25Z</time>
      </trkpt>
      <trkpt lat="48.7717" lon="2.27199">
        <ele>93</ele>
        <time>2017-05-30T13:56:44Z</time>
      </trkpt>
      <trkpt lat="48.77155" lon="2.27203">
        <ele>91</ele>
        <time>2017-05-30T13:57:12Z</time>
      </trkpt>
      <trkpt lat="48.77145" lon="2.27203">
        <ele>93</ele>
        <time>2017-05-30T13:57:21Z</time>
      </trkpt>
      <trkpt lat="48.77139" lon="2.27212">
        <ele>95</ele>
        <time>2017-05-30T13:57:33Z</time>
      </trkpt>
      <trkpt lat="48.77111" lon="2.2722">
        <ele>94</ele>
        <time>2017-05-30T13:58:06Z</time>
      </trkpt>
      <trkpt lat="48.77093" lon="2.27227">
        <ele>95</ele>
        <time>2017-05-30T13:58:26Z</time>
      </trkpt>
      <trkpt lat="48.7707" lon="2.27234">
        <ele>95</ele>
        <time>2017-05-30T14:00:48Z</time>
      </trkpt>
      <trkpt lat="48.77052" lon="2.27242">
        <ele>93</ele>
        <time>2017-05-30T14:02:21Z</time>
      </trkpt>
      <trkpt lat="48.77041" lon="2.2725">
        <ele>91</ele>
        <time>2017-05-30T14:02:38Z</time>
      </trkpt>
      <trkpt lat="48.77022" lon="2.27257">
        <ele>92</ele>
        <time>2017-05-30T14:03:00Z</time>
      </trkpt>
      <trkpt lat="48.77014" lon="2.27264">
        <ele>91</ele>
        <time>2017-05-30T14:03:08Z</time>
      </trkpt>
      <trkpt lat="48.77016" lon="2.27279">
        <ele>92</ele>
        <time>2017-05-30T14:03:33Z</time>
      </trkpt>
      <trkpt lat="48.77014" lon="2.27298">
        <ele>97</ele>
        <time>2017-05-30T14:06:17Z</time>
      </trkpt>
      <trkpt lat="48.77017" lon="2.27311">
        <ele>98</ele>
        <time>2017-05-30T14:06:23Z</time>
      </trkpt>
      <trkpt lat="48.77018" lon="2.27339">
        <ele>100</ele>
        <time>2017-05-30T14:06:36Z</time>
      </trkpt>
      <trkpt lat="48.77024" lon="2.27382">
        <ele>97</ele>
        <time>2017-05-30T14:07:03Z</time>
      </trkpt>
      <trkpt lat="48.7703" lon="2.27395">
        <ele>98</ele>
        <time>2017-05-30T14:07:12Z</time>
      </trkpt>
      <trkpt lat="48.77044" lon="2.27413">
        <ele>97</ele>
        <time>2017-05-30T14:07:27Z</time>
      </trkpt>
      <trkpt lat="48.77047" lon="2.27434">
        <ele>96</ele>
        <time>2017-05-30T14:07:54Z</time>
      </trkpt>
      <trkpt lat="48.77042" lon="2.27447">
        <ele>96</ele>
        <time>2017-05-30T14:08:04Z</time>
      </trkpt>
      <trkpt lat="48.7704" lon="2.27462">
        <ele>95</ele>
        <time>2017-05-30T14:08:13Z</time>
      </trkpt>
      <trkpt lat="48.77047" lon="2.27505">
        <ele>93</ele>
        <time>2017-05-30T14:08:38Z</time>
      </trkpt>
      <trkpt lat="48.7705" lon="2.27518">
        <ele>93</ele>
        <time>2017-05-30T14:08:45Z</time>
      </trkpt>
      <trkpt lat="48.77051" lon="2.27533">
        <ele>93</ele>
        <time>2017-05-30T14:08:53Z</time>
      </trkpt>
      <trkpt lat="48.77054" lon="2.27547">
        <ele>92</ele>
        <time>2017-05-30T14:09:04Z</time>
      </trkpt>
      <trkpt lat="48.77062" lon="2.27601">
        <ele>92</ele>
        <time>2017-05-30T14:09:33Z</time>
      </trkpt>
      <trkpt lat="48.77067" lon="2.27629">
        <ele>93</ele>
        <time>2017-05-30T14:09:50Z</time>
      </trkpt>
      <trkpt lat="48.77069" lon="2.27643">
        <ele>92</ele>
        <time>2017-05-30T14:09:57Z</time>
      </trkpt>
      <trkpt lat="48.77072" lon="2.27657">
        <ele>93</ele>
        <time>2017-05-30T14:10:07Z</time>
      </trkpt>
      <trkpt lat="48.77081" lon="2.27712">
        <ele>96</ele>
        <time>2017-05-30T14:10:42Z</time>
      </trkpt>
      <trkpt lat="48.77086" lon="2.2774">
        <ele>96</ele>
        <time>2017-05-30T14:10:58Z</time>
      </trkpt>
      <trkpt lat="48.77093" lon="2.27781">
        <ele>98</ele>
        <time>2017-05-30T14:11:20Z</time>
      </trkpt>
      <trkpt lat="48.77101" lon="2.2784">
        <ele>99</ele>
        <time>2017-05-30T14:11:51Z</time>
      </trkpt>
      <trkpt lat="48.77105" lon="2.27869">
        <ele>98</ele>
        <time>2017-05-30T14:12:06Z</time>
      </trkpt>
      <trkpt lat="48.77104" lon="2.27899">
        <ele>96</ele>
        <time>2017-05-30T14:12:23Z</time>
      </trkpt>
      <trkpt lat="48.77107" lon="2.27912">
        <ele>96</ele>
        <time>2017-05-30T14:12:30Z</time>
      </trkpt>
      <trkpt lat="48.77113" lon="2.27924">
        <ele>95</ele>
        <time>2017-05-30T14:12:38Z</time>
      </trkpt>
      <trkpt lat="48.7712" lon="2.27971">
        <ele>93</ele>
        <time>2017-05-30T14:13:06Z</time>
      </trkpt>
      <trkpt lat="48.77127" lon="2.27999">
        <ele>93</ele>
        <time>2017-05-30T14:13:21Z</time>
      </trkpt>
      <trkpt lat="48.77128" lon="2.28013">
        <ele>93</ele>
        <time>2017-05-30T14:13:28Z</time>
      </trkpt>
      <trkpt lat="48.7713" lon="2.28027">
        <ele>92</ele>
        <time>2017-05-30T14:13:39Z</time>
      </trkpt>
      <trkpt lat="48.77129" lon="2.28041">
        <ele>91</ele>
        <time>2017-05-30T14:13:54Z</time>
      </trkpt>
      <trkpt lat="48.77145" lon="2.28077">
        <ele>90</ele>
        <time>2017-05-30T14:14:16Z</time>
      </trkpt>
      <trkpt lat="48.77144" lon="2.281">
        <ele>91</ele>
        <time>2017-05-30T14:15:03Z</time>
      </trkpt>
      <trkpt lat="48.77143" lon="2.28115">
        <ele>90</ele>
        <time>2017-05-30T14:15:12Z</time>
      </trkpt>
      <trkpt lat="48.77146" lon="2.2813">
        <ele>90</ele>
        <time>2017-05-30T14:15:23Z</time>
      </trkpt>
      <trkpt lat="48.77152" lon="2.28159">
        <ele>92</ele>
        <time>2017-05-30T14:15:38Z</time>
      </trkpt>
      <trkpt lat="48.77161" lon="2.28226">
        <ele>92</ele>
        <time>2017-05-30T14:16:15Z</time>
      </trkpt>
      <trkpt lat="48.7717" lon="2.28288">
        <ele>93</ele>
        <time>2017-05-30T14:16:53Z</time>
      </trkpt>
      <trkpt lat="48.77171" lon="2.28302">
        <ele>93</ele>
        <time>2017-05-30T14:17:02Z</time>
      </trkpt>
      <trkpt lat="48.77174" lon="2.28316">
        <ele>93</ele>
        <time>2017-05-30T14:17:10Z</time>
      </trkpt>
      <trkpt lat="48.77177" lon="2.28331">
        <ele>91</ele>
        <time>2017-05-30T14:17:18Z</time>
      </trkpt>
      <trkpt lat="48.77183" lon="2.28373">
        <ele>91</ele>
        <time>2017-05-30T14:17:44Z</time>
      </trkpt>
      <trkpt lat="48.77191" lon="2.28431">
        <ele>89</ele>
        <time>2017-05-30T14:18:15Z</time>
      </trkpt>
      <trkpt lat="48.77197" lon="2.28442">
        <ele>87</ele>
        <time>2017-05-30T14:18:27Z</time>
      </trkpt>
      <trkpt lat="48.77215" lon="2.28502">
        <ele>84</ele>
        <time>2017-05-30T14:19:27Z</time>
      </trkpt>
      <trkpt lat="48.77221" lon="2.28513">
        <ele>85</ele>
        <time>2017-05-30T14:19:37Z</time>
      </trkpt>
      <trkpt lat="48.77252" lon="2.28548">
        <ele>85</ele>
        <time>2017-05-30T14:20:08Z</time>
      </trkpt>
      <trkpt lat="48.7726" lon="2.28559">
        <ele>84</ele>
        <time>2017-05-30T14:20:15Z</time>
      </trkpt>
      <trkpt lat="48.77265" lon="2.2857">
        <ele>84</ele>
        <time>2017-05-30T14:20:21Z</time>
      </trkpt>
      <trkpt lat="48.77272" lon="2.28597">
        <ele>82</ele>
        <time>2017-05-30T14:20:40Z</time>
      </trkpt>
      <trkpt lat="48.77276" lon="2.2861">
        <ele>78</ele>
        <time>2017-05-30T14:21:11Z</time>
      </trkpt>
      <trkpt lat="48.77275" lon="2.28623">
        <ele>77</ele>
        <time>2017-05-30T14:21:25Z</time>
      </trkpt>
      <trkpt lat="48.7727" lon="2.28638">
        <ele>78</ele>
        <time>2017-05-30T14:21:41Z</time>
      </trkpt>
      <trkpt lat="48.77264" lon="2.28649">
        <ele>78</ele>
        <time>2017-05-30T14:21:49Z</time>
      </trkpt>
      <trkpt lat="48.77255" lon="2.28654">
        <ele>78</ele>
        <time>2017-05-30T14:21:58Z</time>
      </trkpt>
      <trkpt lat="48.77248" lon="2.28664">
        <ele>77</ele>
        <time>2017-05-30T14:22:07Z</time>
      </trkpt>
      <trkpt lat="48.77238" lon="2.28665">
        <ele>75</ele>
        <time>2017-05-30T14:22:15Z</time>
      </trkpt>
      <trkpt lat="48.77229" lon="2.28666">
        <ele>74</ele>
        <time>2017-05-30T14:22:26Z</time>
      </trkpt>
      <trkpt lat="48.77201" lon="2.28671">
        <ele>77</ele>
        <time>2017-05-30T14:22:59Z</time>
      </trkpt>
      <trkpt lat="48.77191" lon="2.2867">
        <ele>77</ele>
        <time>2017-05-30T14:23:09Z</time>
      </trkpt>
      <trkpt lat="48.77173" lon="2.28673">
        <ele>79</ele>
        <time>2017-05-30T14:23:22Z</time>
      </trkpt>
      <trkpt lat="48.77164" lon="2.28681">
        <ele>81</ele>
        <time>2017-05-30T14:23:33Z</time>
      </trkpt>
      <trkpt lat="48.77154" lon="2.28685">
        <ele>81</ele>
        <time>2017-05-30T14:23:41Z</time>
      </trkpt>
      <trkpt lat="48.77135" lon="2.28685">
        <ele>81</ele>
        <time>2017-05-30T14:23:52Z</time>
      </trkpt>
      <trkpt lat="48.77117" lon="2.28692">
        <ele>81</ele>
        <time>2017-05-30T14:24:05Z</time>
      </trkpt>
      <trkpt lat="48.77111" lon="2.28702">
        <ele>81</ele>
        <time>2017-05-30T14:24:15Z</time>
      </trkpt>
      <trkpt lat="48.77093" lon="2.28715">
        <ele>80</ele>
        <time>2017-05-30T14:24:31Z</time>
      </trkpt>
      <trkpt lat="48.77083" lon="2.28718">
        <ele>80</ele>
        <time>2017-05-30T14:24:43Z</time>
      </trkpt>
      <trkpt lat="48.77074" lon="2.28721">
        <ele>80</ele>
        <time>2017-05-30T14:24:49Z</time>
      </trkpt>
      <trkpt lat="48.77067" lon="2.28733">
        <ele>80</ele>
        <time>2017-05-30T14:24:59Z</time>
      </trkpt>
      <trkpt lat="48.7704" lon="2.28752">
        <ele>82</ele>
        <time>2017-05-30T14:25:20Z</time>
      </trkpt>
      <trkpt lat="48.7703" lon="2.28753">
        <ele>82</ele>
        <time>2017-05-30T14:25:26Z</time>
      </trkpt>
      <trkpt lat="48.77023" lon="2.28762">
        <ele>83</ele>
        <time>2017-05-30T14:25:33Z</time>
      </trkpt>
      <trkpt lat="48.77015" lon="2.2877">
        <ele>84</ele>
        <time>2017-05-30T14:25:43Z</time>
      </trkpt>
      <trkpt lat="48.77005" lon="2.28775">
        <ele>83</ele>
        <time>2017-05-30T14:25:50Z</time>
      </trkpt>
      <trkpt lat="48.7699" lon="2.28793">
        <ele>82</ele>
        <time>2017-05-30T14:26:04Z</time>
      </trkpt>
      <trkpt lat="48.7698" lon="2.28799">
        <ele>82</ele>
        <time>2017-05-30T14:26:11Z</time>
      </trkpt>
      <trkpt lat="48.76964" lon="2.28814">
        <ele>84</ele>
        <time>2017-05-30T14:26:30Z</time>
      </trkpt>
      <trkpt lat="48.76939" lon="2.2884">
        <ele>84</ele>
        <time>2017-05-30T14:26:52Z</time>
      </trkpt>
      <trkpt lat="48.76928" lon="2.28843">
        <ele>84</ele>
        <time>2017-05-30T14:26:57Z</time>
      </trkpt>
      <trkpt lat="48.7692" lon="2.28848">
        <ele>84</ele>
        <time>2017-05-30T14:27:02Z</time>
      </trkpt>
      <trkpt lat="48.76903" lon="2.2886">
        <ele>83</ele>
        <time>2017-05-30T14:27:13Z</time>
      </trkpt>
      <trkpt lat="48.76889" lon="2.28881">
        <ele>80</ele>
        <time>2017-05-30T14:27:27Z</time>
      </trkpt>
      <trkpt lat="48.76864" lon="2.28901">
        <ele>79</ele>
        <time>2017-05-30T14:27:53Z</time>
      </trkpt>
      <trkpt lat="48.76848" lon="2.28912">
        <ele>78</ele>
        <time>2017-05-30T14:28:12Z</time>
      </trkpt>
      <trkpt lat="48.76839" lon="2.28916">
        <ele>78</ele>
        <time>2017-05-30T14:28:19Z</time>
      </trkpt>
      <trkpt lat="48.76821" lon="2.28931">
        <ele>77</ele>
        <time>2017-05-30T14:28:36Z</time>
      </trkpt>
      <trkpt lat="48.76808" lon="2.28938">
        <ele>75</ele>
        <time>2017-05-30T14:28:48Z</time>
      </trkpt>
      <trkpt lat="48.76802" lon="2.28949">
        <ele>73</ele>
        <time>2017-05-30T14:28:57Z</time>
      </trkpt>
      <trkpt lat="48.76796" lon="2.28962">
        <ele>72</ele>
        <time>2017-05-30T14:29:04Z</time>
      </trkpt>
      <trkpt lat="48.76786" lon="2.28965">
        <ele>71</ele>
        <time>2017-05-30T14:29:09Z</time>
      </trkpt>
      <trkpt lat="48.76766" lon="2.28971">
        <ele>71</ele>
        <time>2017-05-30T14:29:23Z</time>
      </trkpt>
      <trkpt lat="48.7675" lon="2.28986">
        <ele>71</ele>
        <time>2017-05-30T14:29:39Z</time>
      </trkpt>
      <trkpt lat="48.76726" lon="2.2901">
        <ele>72</ele>
        <time>2017-05-30T14:30:04Z</time>
      </trkpt>
      <trkpt lat="48.76717" lon="2.29015">
        <ele>72</ele>
        <time>2017-05-30T14:30:10Z</time>
      </trkpt>
      <trkpt lat="48.7671" lon="2.29023">
        <ele>71</ele>
        <time>2017-05-30T14:30:17Z</time>
      </trkpt>
      <trkpt lat="48.76705" lon="2.29035">
        <ele>71</ele>
        <time>2017-05-30T14:30:26Z</time>
      </trkpt>
      <trkpt lat="48.76686" lon="2.29044">
        <ele>72</ele>
        <time>2017-05-30T14:30:40Z</time>
      </trkpt>
      <trkpt lat="48.76677" lon="2.29051">
        <ele>72</ele>
        <time>2017-05-30T14:30:48Z</time>
      </trkpt>
      <trkpt lat="48.76662" lon="2.29067">
        <ele>70</ele>
        <time>2017-05-30T14:31:00Z</time>
      </trkpt>
      <trkpt lat="48.7665" lon="2.29079">
        <ele>66</ele>
        <time>2017-05-30T14:32:49Z</time>
      </trkpt>
      <trkpt lat="48.76639" lon="2.29085">
        <ele>72</ele>
        <time>2017-05-30T14:34:01Z</time>
      </trkpt>
      <trkpt lat="48.76632" lon="2.29094">
        <ele>73</ele>
        <time>2017-05-30T14:34:08Z</time>
      </trkpt>
      <trkpt lat="48.76616" lon="2.29113">
        <ele>73</ele>
        <time>2017-05-30T14:34:26Z</time>
      </trkpt>
      <trkpt lat="48.76608" lon="2.2912">
        <ele>73</ele>
        <time>2017-05-30T14:34:31Z</time>
      </trkpt>
      <trkpt lat="48.76599" lon="2.29124">
        <ele>74</ele>
        <time>2017-05-30T14:34:40Z</time>
      </trkpt>
      <trkpt lat="48.76583" lon="2.29141">
        <ele>75</ele>
        <time>2017-05-30T14:34:54Z</time>
      </trkpt>
      <trkpt lat="48.76555" lon="2.2916">
        <ele>74</ele>
        <time>2017-05-30T14:35:14Z</time>
      </trkpt>
      <trkpt lat="48.76541" lon="2.2918">
        <ele>76</ele>
        <time>2017-05-30T14:35:32Z</time>
      </trkpt>
      <trkpt lat="48.76533" lon="2.29188">
        <ele>76</ele>
        <time>2017-05-30T14:35:40Z</time>
      </trkpt>
      <trkpt lat="48.76524" lon="2.29191">
        <ele>76</ele>
        <time>2017-05-30T14:35:48Z</time>
      </trkpt>
      <trkpt lat="48.76515" lon="2.29196">
        <ele>75</ele>
        <time>2017-05-30T14:35:57Z</time>
      </trkpt>
      <trkpt lat="48.76487" lon="2.29215">
        <ele>76</ele>
        <time>2017-05-30T14:36:18Z</time>
      </trkpt>
      <trkpt lat="48.7648" lon="2.29225">
        <ele>77</ele>
        <time>2017-05-30T14:36:24Z</time>
      </trkpt>
      <trkpt lat="48.76472" lon="2.29235">
        <ele>77</ele>
        <time>2017-05-30T14:36:30Z</time>
      </trkpt>
      <trkpt lat="48.76465" lon="2.29244">
        <ele>77</ele>
        <time>2017-05-30T14:36:40Z</time>
      </trkpt>
      <trkpt lat="48.76454" lon="2.29249">
        <ele>77</ele>
        <time>2017-05-30T14:36:50Z</time>
      </trkpt>
      <trkpt lat="48.76445" lon="2.29252">
        <ele>78</ele>
        <time>2017-05-30T14:36:58Z</time>
      </trkpt>
      <trkpt lat="48.76438" lon="2.2926">
        <ele>78</ele>
        <time>2017-05-30T14:37:05Z</time>
      </trkpt>
      <trkpt lat="48.76429" lon="2.29268">
        <ele>77</ele>
        <time>2017-05-30T14:37:17Z</time>
      </trkpt>
      <trkpt lat="48.76421" lon="2.29277">
        <ele>77</ele>
        <time>2017-05-30T14:37:28Z</time>
      </trkpt>
      <trkpt lat="48.76403" lon="2.29286">
        <ele>77</ele>
        <time>2017-05-30T14:37:39Z</time>
      </trkpt>
      <trkpt lat="48.76396" lon="2.29297">
        <ele>77</ele>
        <time>2017-05-30T14:37:48Z</time>
      </trkpt>
      <trkpt lat="48.76388" lon="2.29304">
        <ele>77</ele>
        <time>2017-05-30T14:37:56Z</time>
      </trkpt>
      <trkpt lat="48.76379" lon="2.29308">
        <ele>77</ele>
        <time>2017-05-30T14:38:03Z</time>
      </trkpt>
      <trkpt lat="48.76339" lon="2.29343">
        <ele>75</ele>
        <time>2017-05-30T14:38:38Z</time>
      </trkpt>
      <trkpt lat="48.76332" lon="2.29351">
        <ele>74</ele>
        <time>2017-05-30T14:38:45Z</time>
      </trkpt>
      <trkpt lat="48.76322" lon="2.29356">
        <ele>74</ele>
        <time>2017-05-30T14:38:57Z</time>
      </trkpt>
      <trkpt lat="48.76306" lon="2.29372">
        <ele>75</ele>
        <time>2017-05-30T14:39:12Z</time>
      </trkpt>
      <trkpt lat="48.7628" lon="2.29395">
        <ele>73</ele>
        <time>2017-05-30T14:39:41Z</time>
      </trkpt>
      <trkpt lat="48.76245" lon="2.29421">
        <ele>72</ele>
        <time>2017-05-30T14:40:12Z</time>
      </trkpt>
      <trkpt lat="48.76236" lon="2.29428">
        <ele>72</ele>
        <time>2017-05-30T14:40:17Z</time>
      </trkpt>
      <trkpt lat="48.7622" lon="2.29444">
        <ele>71</ele>
        <time>2017-05-30T14:40:27Z</time>
      </trkpt>
      <trkpt lat="48.7621" lon="2.29449">
        <ele>71</ele>
        <time>2017-05-30T14:40:33Z</time>
      </trkpt>
      <trkpt lat="48.76191" lon="2.29449">
        <ele>70</ele>
        <time>2017-05-30T14:40:47Z</time>
      </trkpt>
      <trkpt lat="48.76181" lon="2.29453">
        <ele>70</ele>
        <time>2017-05-30T14:41:00Z</time>
      </trkpt>
      <trkpt lat="48.76163" lon="2.29485">
        <ele>76</ele>
        <time>2017-05-30T14:41:38Z</time>
      </trkpt>
      <trkpt lat="48.76153" lon="2.29487">
        <ele>75</ele>
        <time>2017-05-30T14:41:44Z</time>
      </trkpt>
      <trkpt lat="48.76144" lon="2.29494">
        <ele>73</ele>
        <time>2017-05-30T14:41:52Z</time>
      </trkpt>
      <trkpt lat="48.76137" lon="2.29487">
        <ele>72</ele>
        <time>2017-05-30T14:42:01Z</time>
      </trkpt>
      <trkpt lat="48.7613" lon="2.29477">
        <ele>71</ele>
        <time>2017-05-30T14:42:11Z</time>
      </trkpt>
      <trkpt lat="48.76127" lon="2.29465">
        <ele>72</ele>
        <time>2017-05-30T14:42:20Z</time>
      </trkpt>
      <trkpt lat="48.76127" lon="2.29449">
        <ele>71</ele>
        <time>2017-05-30T14:42:28Z</time>
      </trkpt>
      <trkpt lat="48.76122" lon="2.29421">
        <ele>71</ele>
        <time>2017-05-30T14:42:45Z</time>
      </trkpt>
      <trkpt lat="48.76122" lon="2.29406">
        <ele>71</ele>
        <time>2017-05-30T14:42:52Z</time>
      </trkpt>
      <trkpt lat="48.76124" lon="2.29346">
        <ele>71</ele>
        <time>2017-05-30T14:43:28Z</time>
      </trkpt>
      <trkpt lat="48.7612" lon="2.29298">
        <ele>72</ele>
        <time>2017-05-30T14:44:01Z</time>
      </trkpt>
      <trkpt lat="48.76119" lon="2.29284">
        <ele>71</ele>
        <time>2017-05-30T14:44:09Z</time>
      </trkpt>
      <trkpt lat="48.7612" lon="2.29257">
        <ele>74</ele>
        <time>2017-05-30T14:44:25Z</time>
      </trkpt>
      <trkpt lat="48.76123" lon="2.29228">
        <ele>75</ele>
        <time>2017-05-30T14:44:40Z</time>
      </trkpt>
      <trkpt lat="48.76127" lon="2.29215">
        <ele>75</ele>
        <time>2017-05-30T14:44:48Z</time>
      </trkpt>
      <trkpt lat="48.76129" lon="2.29187">
        <ele>76</ele>
        <time>2017-05-30T14:45:03Z</time>
      </trkpt>
      <trkpt lat="48.76136" lon="2.2916">
        <ele>76</ele>
        <time>2017-05-30T14:45:18Z</time>
      </trkpt>
      <trkpt lat="48.76125" lon="2.29144">
        <ele>77</ele>
        <time>2017-05-30T14:45:52Z</time>
      </trkpt>
      <trkpt lat="48.7612" lon="2.29117">
        <ele>78</ele>
        <time>2017-05-30T14:46:12Z</time>
      </trkpt>
      <trkpt lat="48.76105" lon="2.29097">
        <ele>81</ele>
        <time>2017-05-30T14:46:29Z</time>
      </trkpt>
      <trkpt lat="48.76097" lon="2.2909">
        <ele>83</ele>
        <time>2017-05-30T14:46:38Z</time>
      </trkpt>
      <trkpt lat="48.76087" lon="2.29089">
        <ele>84</ele>
        <time>2017-05-30T14:46:45Z</time>
      </trkpt>
      <trkpt lat="48.76066" lon="2.29091">
        <ele>84</ele>
        <time>2017-05-30T14:46:59Z</time>
      </trkpt>
      <trkpt lat="48.76057" lon="2.29092">
        <ele>83</ele>
        <time>2017-05-30T14:47:05Z</time>
      </trkpt>
      <trkpt lat="48.76047" lon="2.29093">
        <ele>83</ele>
        <time>2017-05-30T14:47:12Z</time>
      </trkpt>
      <trkpt lat="48.7601" lon="2.29087">
        <ele>83</ele>
        <time>2017-05-30T14:47:43Z</time>
      </trkpt>
      <trkpt lat="48.75974" lon="2.2907">
        <ele>82</ele>
        <time>2017-05-30T14:48:17Z</time>
      </trkpt>
      <trkpt lat="48.75956" lon="2.29064">
        <ele>82</ele>
        <time>2017-05-30T14:48:33Z</time>
      </trkpt>
      <trkpt lat="48.75937" lon="2.29068">
        <ele>83</ele>
        <time>2017-05-30T14:48:50Z</time>
      </trkpt>
      <trkpt lat="48.75928" lon="2.29076">
        <ele>84</ele>
        <time>2017-05-30T14:49:05Z</time>
      </trkpt>
      <trkpt lat="48.75911" lon="2.29089">
        <ele>84</ele>
        <time>2017-05-30T14:49:24Z</time>
      </trkpt>
      <trkpt lat="48.75902" lon="2.29094">
        <ele>84</ele>
        <time>2017-05-30T14:49:35Z</time>
      </trkpt>
      <trkpt lat="48.75878" lon="2.29117">
        <ele>86</ele>
        <time>2017-05-30T14:49:59Z</time>
      </trkpt>
      <trkpt lat="48.75765" lon="2.2931">
        <ele>82</ele>
        <time>2017-05-30T14:52:39Z</time>
      </trkpt>
      <trkpt lat="48.7572" lon="2.29401">
        <ele>126</ele>
        <time>2017-05-30T14:53:16Z</time>
      </trkpt>
      <trkpt lat="48.75717" lon="2.29396">
        <ele>89</ele>
        <time>2017-05-30T14:53:25Z</time>
      </trkpt>
      <trkpt lat="48.75695" lon="2.29412">
        <ele>92</ele>
        <time>2017-05-30T14:53:28Z</time>
      </trkpt>
      <trkpt lat="48.75699" lon="2.2942">
        <ele>91</ele>
        <time>2017-05-30T14:53:35Z</time>
      </trkpt>
      <trkpt lat="48.75698" lon="2.29441">
        <ele>88</ele>
        <time>2017-05-30T14:53:53Z</time>
      </trkpt>
      <trkpt lat="48.75686" lon="2.29465">
        <ele>85</ele>
        <time>2017-05-30T14:54:05Z</time>
      </trkpt>
      <trkpt lat="48.7568" lon="2.29476">
        <ele>85</ele>
        <time>2017-05-30T14:54:13Z</time>
      </trkpt>
      <trkpt lat="48.75672" lon="2.29485">
        <ele>85</ele>
        <time>2017-05-30T14:54:20Z</time>
      </trkpt>
      <trkpt lat="48.75667" lon="2.29497">
        <ele>82</ele>
        <time>2017-05-30T14:54:28Z</time>
      </trkpt>
      <trkpt lat="48.7566" lon="2.29506">
        <ele>80</ele>
        <time>2017-05-30T14:54:37Z</time>
      </trkpt>
      <trkpt lat="48.75652" lon="2.29513">
        <ele>79</ele>
        <time>2017-05-30T14:54:45Z</time>
      </trkpt>
      <trkpt lat="48.75643" lon="2.29519">
        <ele>79</ele>
        <time>2017-05-30T14:54:53Z</time>
      </trkpt>
    </trkseg>
  </trk>
</gpx>